2016 Cux-Wetter.de -Die Nutzung der Wetterdaten nur mit ausdrcklicher Genehmigung
Wetterdaten: Mittwoch, 28.12.2016
Datum Zeit Temp. A. Feuchte A. Luftdruck Regen Wind Richtung Richtung Sonnenschein Solar Taupunkt Windchill Windben
28.12.2016 00:00 7,5 C 94 % 1038,7 hPa 0,0 l/m 12,8 km/h (3 Bft) W-NW 303 0 min 0 W/m 6,6 C 3,2 C 22,5 km/h (4 Bft)
28.12.2016 00:03 7,5 C 94 % 1038,7 hPa 0,0 l/m 10,1 km/h (2 Bft) W 269 0 min 0 W/m 6,6 C 4,8 C 22,5 km/h (4 Bft)
28.12.2016 00:06 7,5 C 94 % 1038,7 hPa 0,0 l/m 10,0 km/h (2 Bft) W 270 0 min 0 W/m 6,6 C 4,8 C 19,3 km/h (3 Bft)
28.12.2016 00:09 7,5 C 94 % 1038,8 hPa 0,0 l/m 10,1 km/h (2 Bft) W 280 0 min 0 W/m 6,6 C 4,8 C 24,1 km/h (4 Bft)
28.12.2016 00:12 7,5 C 94 % 1038,9 hPa 0,0 l/m 10,3 km/h (2 Bft) NW 311 0 min 0 W/m 6,6 C 4,6 C 22,5 km/h (4 Bft)
28.12.2016 00:15 7,4 C 94 % 1038,9 hPa 0,0 l/m 7,4 km/h (2 Bft) NW 323 0 min 0 W/m 6,5 C 6,6 C 16,1 km/h (3 Bft)
28.12.2016 00:18 7,4 C 94 % 1038,9 hPa 0,0 l/m 7,3 km/h (2 Bft) W 260 0 min 0 W/m 6,5 C 6,7 C 19,3 km/h (3 Bft)
28.12.2016 00:21 7,4 C 94 % 1038,9 hPa 0,0 l/m 11,7 km/h (2 Bft) S-SW 212 0 min 0 W/m 6,5 C 3,7 C 19,3 km/h (3 Bft)
28.12.2016 00:24 7,4 C 94 % 1038,9 hPa 0,0 l/m 10,5 km/h (2 Bft) W 278 0 min 0 W/m 6,5 C 4,4 C 17,7 km/h (3 Bft)
28.12.2016 00:27 7,3 C 94 % 1038,9 hPa 0,0 l/m 9,7 km/h (2 Bft) W-NW 292 0 min 0 W/m 6,4 C 4,8 C 19,3 km/h (3 Bft)
28.12.2016 00:30 7,3 C 94 % 1039,0 hPa 0,0 l/m 8,9 km/h (2 Bft) W-NW 298 0 min 0 W/m 6,4 C 5,4 C 19,3 km/h (3 Bft)
28.12.2016 00:33 7,3 C 94 % 1039,0 hPa 0,0 l/m 11,3 km/h (2 Bft) W 275 0 min 0 W/m 6,4 C 3,8 C 17,7 km/h (3 Bft)
28.12.2016 00:36 7,3 C 94 % 1039,0 hPa 0,0 l/m 10,3 km/h (2 Bft) W-NW 302 0 min 0 W/m 6,4 C 4,4 C 20,9 km/h (4 Bft)
28.12.2016 00:39 7,3 C 94 % 1039,0 hPa 0,0 l/m 9,5 km/h (2 Bft) W 273 0 min 0 W/m 6,4 C 4,9 C 20,9 km/h (4 Bft)
28.12.2016 00:42 7,3 C 94 % 1038,9 hPa 0,0 l/m 12,2 km/h (2 Bft) W-NW 282 0 min 0 W/m 6,4 C 3,3 C 24,1 km/h (4 Bft)
28.12.2016 00:45 7,3 C 94 % 1038,9 hPa 0,0 l/m 10,0 km/h (2 Bft) W-SW 257 0 min 0 W/m 6,4 C 4,6 C 19,3 km/h (3 Bft)
28.12.2016 00:48 7,3 C 94 % 1038,8 hPa 0,0 l/m 10,0 km/h (2 Bft) W-NW 283 0 min 0 W/m 6,4 C 4,6 C 17,7 km/h (3 Bft)
28.12.2016 00:51 7,3 C 94 % 1038,8 hPa 0,0 l/m 9,6 km/h (2 Bft) W 265 0 min 0 W/m 6,4 C 4,9 C 17,7 km/h (3 Bft)
28.12.2016 00:54 7,3 C 94 % 1038,8 hPa 0,0 l/m 12,1 km/h (2 Bft) W-SW 254 0 min 0 W/m 6,4 C 3,3 C 22,5 km/h (4 Bft)
28.12.2016 00:57 7,3 C 94 % 1038,8 hPa 0,0 l/m 12,3 km/h (2 Bft) W-SW 254 0 min 0 W/m 6,4 C 3,2 C 22,5 km/h (4 Bft)
28.12.2016 01:00 7,3 C 94 % 1038,9 hPa 0,0 l/m 11,9 km/h (2 Bft) W-SW 238 0 min 0 W/m 6,4 C 3,5 C 20,9 km/h (4 Bft)
28.12.2016 01:03 7,3 C 94 % 1038,9 hPa 0,0 l/m 11,8 km/h (2 Bft) W 277 0 min 0 W/m 6,4 C 3,5 C 19,3 km/h (3 Bft)
28.12.2016 01:06 7,2 C 94 % 1038,9 hPa 0,0 l/m 7,7 km/h (2 Bft) NW 317 0 min 0 W/m 6,3 C 6,1 C 12,9 km/h (3 Bft)
28.12.2016 01:09 7,2 C 94 % 1038,9 hPa 0,0 l/m 11,2 km/h (2 Bft) W 273 0 min 0 W/m 6,3 C 3,8 C 24,1 km/h (4 Bft)
28.12.2016 01:12 7,2 C 94 % 1038,8 hPa 0,0 l/m 12,7 km/h (3 Bft) W-NW 295 0 min 0 W/m 6,3 C 2,9 C 25,7 km/h (4 Bft)
28.12.2016 01:15 7,2 C 94 % 1038,8 hPa 0,0 l/m 11,8 km/h (2 Bft) W 269 0 min 0 W/m 6,3 C 3,4 C 19,3 km/h (3 Bft)
28.12.2016 01:18 7,2 C 94 % 1038,7 hPa 0,0 l/m 10,0 km/h (2 Bft) W 277 0 min 0 W/m 6,3 C 4,5 C 17,7 km/h (3 Bft)
28.12.2016 01:21 7,2 C 94 % 1038,7 hPa 0,0 l/m 10,1 km/h (2 Bft) W-SW 240 0 min 0 W/m 6,3 C 4,4 C 19,3 km/h (3 Bft)
28.12.2016 01:24 7,2 C 94 % 1038,6 hPa 0,0 l/m 13,3 km/h (3 Bft) W 271 0 min 0 W/m 6,3 C 2,6 C 22,5 km/h (4 Bft)
28.12.2016 01:27 7,2 C 94 % 1038,7 hPa 0,0 l/m 10,2 km/h (2 Bft) W-SW 254 0 min 0 W/m 6,3 C 4,4 C 17,7 km/h (3 Bft)
28.12.2016 01:30 7,2 C 94 % 1038,7 hPa 0,0 l/m 11,0 km/h (2 Bft) SW 220 0 min 0 W/m 6,3 C 3,9 C 20,9 km/h (4 Bft)
28.12.2016 01:33 7,1 C 94 % 1038,7 hPa 0,0 l/m 11,0 km/h (2 Bft) W-SW 243 0 min 0 W/m 6,2 C 3,8 C 22,5 km/h (4 Bft)
28.12.2016 01:36 7,1 C 94 % 1038,6 hPa 0,0 l/m 13,6 km/h (3 Bft) W 277 0 min 0 W/m 6,2 C 2,3 C 24,1 km/h (4 Bft)
28.12.2016 01:39 7,1 C 94 % 1038,5 hPa 0,0 l/m 14,9 km/h (3 Bft) W 259 0 min 0 W/m 6,2 C 1,7 C 24,1 km/h (4 Bft)
28.12.2016 01:42 7,1 C 94 % 1038,6 hPa 0,0 l/m 12,5 km/h (2 Bft) W-SW 257 0 min 0 W/m 6,2 C 2,9 C 17,7 km/h (3 Bft)
28.12.2016 01:45 7,1 C 94 % 1038,6 hPa 0,0 l/m 16,5 km/h (3 Bft) W 275 0 min 0 W/m 6,2 C 0,9 C 27,4 km/h (5 Bft)
28.12.2016 01:48 7,1 C 94 % 1038,6 hPa 0,0 l/m 11,8 km/h (2 Bft) W 271 0 min 0 W/m 6,2 C 3,3 C 19,3 km/h (3 Bft)
28.12.2016 01:51 7,1 C 94 % 1038,6 hPa 0,0 l/m 9,8 km/h (2 Bft) S 189 0 min 0 W/m 6,2 C 4,5 C 19,3 km/h (3 Bft)
28.12.2016 01:54 7,1 C 94 % 1038,6 hPa 0,0 l/m 9,7 km/h (2 Bft) W 273 0 min 0 W/m 6,2 C 4,6 C 17,7 km/h (3 Bft)
28.12.2016 01:57 7,1 C 94 % 1038,6 hPa 0,0 l/m 8,8 km/h (2 Bft) W 271 0 min 0 W/m 6,2 C 5,2 C 20,9 km/h (4 Bft)
28.12.2016 02:00 7,1 C 94 % 1038,7 hPa 0,0 l/m 13,5 km/h (3 Bft) SW 232 0 min 0 W/m 6,2 C 2,4 C 24,1 km/h (4 Bft)
28.12.2016 02:03 7,1 C 94 % 1038,6 hPa 0,0 l/m 11,2 km/h (2 Bft) W-NW 299 0 min 0 W/m 6,2 C 3,6 C 19,3 km/h (3 Bft)
28.12.2016 02:06 7,1 C 94 % 1038,6 hPa 0,0 l/m 10,1 km/h (2 Bft) W 270 0 min 0 W/m 6,2 C 4,3 C 22,5 km/h (4 Bft)
28.12.2016 02:09 7,1 C 94 % 1038,7 hPa 0,0 l/m 11,5 km/h (2 Bft) W-SW 250 0 min 0 W/m 6,2 C 3,5 C 25,7 km/h (4 Bft)
28.12.2016 02:12 7,1 C 94 % 1038,6 hPa 0,0 l/m 8,8 km/h (2 Bft) NW 315 0 min 0 W/m 6,2 C 5,2 C 17,7 km/h (3 Bft)
28.12.2016 02:15 7,1 C 94 % 1038,7 hPa 0,0 l/m 14,4 km/h (3 Bft) W-NW 286 0 min 0 W/m 6,2 C 1,9 C 25,7 km/h (4 Bft)
28.12.2016 02:18 7,1 C 94 % 1038,7 hPa 0,0 l/m 12,7 km/h (3 Bft) W-NW 282 0 min 0 W/m 6,2 C 2,8 C 22,5 km/h (4 Bft)
28.12.2016 02:21 7,1 C 94 % 1038,6 hPa 0,0 l/m 14,5 km/h (3 Bft) W 280 0 min 0 W/m 6,2 C 1,9 C 22,5 km/h (4 Bft)
28.12.2016 02:24 7,1 C 94 % 1038,7 hPa 0,0 l/m 12,4 km/h (2 Bft) W 271 0 min 0 W/m 6,2 C 3,0 C 22,5 km/h (4 Bft)
28.12.2016 02:27 7,1 C 94 % 1038,7 hPa 0,0 l/m 10,9 km/h (2 Bft) W-SW 258 0 min 0 W/m 6,2 C 3,8 C 22,5 km/h (4 Bft)
28.12.2016 02:30 7,1 C 94 % 1038,7 hPa 0,0 l/m 13,3 km/h (3 Bft) W-NW 283 0 min 0 W/m 6,2 C 2,5 C 22,5 km/h (4 Bft)
28.12.2016 02:33 7,1 C 94 % 1038,7 hPa 0,0 l/m 9,2 km/h (2 Bft) W-SW 256 0 min 0 W/m 6,2 C 4,9 C 20,9 km/h (4 Bft)
28.12.2016 02:36 7,0 C 94 % 1038,7 hPa 0,0 l/m 11,8 km/h (2 Bft) W-NW 289 0 min 0 W/m 6,1 C 3,2 C 22,5 km/h (4 Bft)
28.12.2016 02:39 7,1 C 94 % 1038,7 hPa 0,0 l/m 11,9 km/h (2 Bft) W 267 0 min 0 W/m 6,2 C 3,2 C 17,7 km/h (3 Bft)
28.12.2016 02:42 7,0 C 94 % 1038,6 hPa 0,0 l/m 13,3 km/h (3 Bft) W 271 0 min 0 W/m 6,1 C 2,3 C 24,1 km/h (4 Bft)
28.12.2016 02:45 7,0 C 94 % 1038,7 hPa 0,0 l/m 14,0 km/h (3 Bft) W 276 0 min 0 W/m 6,1 C 2,0 C 25,7 km/h (4 Bft)
28.12.2016 02:48 7,0 C 94 % 1038,8 hPa 0,0 l/m 12,1 km/h (2 Bft) W 263 0 min 0 W/m 6,1 C 3,0 C 22,5 km/h (4 Bft)
28.12.2016 02:51 7,0 C 94 % 1038,7 hPa 0,0 l/m 12,1 km/h (2 Bft) W 265 0 min 0 W/m 6,1 C 3,0 C 22,5 km/h (4 Bft)
28.12.2016 02:54 7,0 C 94 % 1038,8 hPa 0,0 l/m 13,5 km/h (3 Bft) W-NW 284 0 min 0 W/m 6,1 C 2,2 C 20,9 km/h (4 Bft)
28.12.2016 02:57 7,0 C 94 % 1038,7 hPa 0,0 l/m 11,2 km/h (2 Bft) W 281 0 min 0 W/m 6,1 C 3,5 C 17,7 km/h (3 Bft)
28.12.2016 03:00 7,0 C 94 % 1038,8 hPa 0,0 l/m 11,9 km/h (2 Bft) W-SW 257 0 min 0 W/m 6,1 C 3,1 C 20,9 km/h (4 Bft)
28.12.2016 03:03 7,0 C 94 % 1038,9 hPa 0,0 l/m 9,7 km/h (2 Bft) W 270 0 min 0 W/m 6,1 C 4,5 C 17,7 km/h (3 Bft)
28.12.2016 03:06 7,0 C 94 % 1039,0 hPa 0,0 l/m 11,9 km/h (2 Bft) W 278 0 min 0 W/m 6,1 C 3,1 C 22,5 km/h (4 Bft)
28.12.2016 03:09 7,0 C 94 % 1038,9 hPa 0,0 l/m 12,7 km/h (3 Bft) W 262 0 min 0 W/m 6,1 C 2,7 C 22,5 km/h (4 Bft)
28.12.2016 03:12 7,0 C 94 % 1039,0 hPa 0,0 l/m 11,7 km/h (2 Bft) NW 319 0 min 0 W/m 6,1 C 3,2 C 20,9 km/h (4 Bft)
28.12.2016 03:15 7,0 C 94 % 1039,1 hPa 0,0 l/m 9,8 km/h (2 Bft) W 269 0 min 0 W/m 6,1 C 4,4 C 17,7 km/h (3 Bft)
28.12.2016 03:18 7,0 C 94 % 1039,1 hPa 0,0 l/m 11,8 km/h (2 Bft) SW 219 0 min 0 W/m 6,1 C 3,2 C 19,3 km/h (3 Bft)
28.12.2016 03:21 6,9 C 94 % 1039,2 hPa 0,0 l/m 10,8 km/h (2 Bft) W 259 0 min 0 W/m 6,0 C 3,7 C 22,5 km/h (4 Bft)
28.12.2016 03:24 6,9 C 94 % 1039,1 hPa 0,0 l/m 9,5 km/h (2 Bft) W-SW 240 0 min 0 W/m 6,0 C 4,5 C 16,1 km/h (3 Bft)
28.12.2016 03:27 6,9 C 94 % 1039,1 hPa 0,0 l/m 11,3 km/h (2 Bft) W 265 0 min 0 W/m 6,0 C 3,4 C 17,7 km/h (3 Bft)
28.12.2016 03:30 6,9 C 95 % 1039,1 hPa 0,0 l/m 10,7 km/h (2 Bft) W-NW 288 0 min 0 W/m 6,2 C 3,7 C 19,3 km/h (3 Bft)
28.12.2016 03:33 6,9 C 95 % 1039,1 hPa 0,0 l/m 10,7 km/h (2 Bft) W 273 0 min 0 W/m 6,2 C 3,7 C 17,7 km/h (3 Bft)
28.12.2016 03:36 6,9 C 95 % 1039,1 hPa 0,0 l/m 10,6 km/h (2 Bft) W-NW 301 0 min 0 W/m 6,2 C 3,8 C 17,7 km/h (3 Bft)
28.12.2016 03:39 6,9 C 95 % 1039,1 hPa 0,0 l/m 12,2 km/h (2 Bft) W 271 0 min 0 W/m 6,2 C 2,8 C 17,7 km/h (3 Bft)
28.12.2016 03:42 6,8 C 95 % 1039,1 hPa 0,0 l/m 10,3 km/h (2 Bft) W-SW 248 0 min 0 W/m 6,1 C 3,9 C 16,1 km/h (3 Bft)
28.12.2016 03:45 6,9 C 95 % 1039,1 hPa 0,0 l/m 10,7 km/h (2 Bft) W-NW 292 0 min 0 W/m 6,2 C 3,7 C 20,9 km/h (4 Bft)
28.12.2016 03:48 6,8 C 95 % 1039,2 hPa 0,0 l/m 9,9 km/h (2 Bft) W-NW 284 0 min 0 W/m 6,1 C 4,1 C 17,7 km/h (3 Bft)
28.12.2016 03:51 6,8 C 95 % 1039,2 hPa 0,0 l/m 11,2 km/h (2 Bft) W 267 0 min 0 W/m 6,1 C 3,3 C 22,5 km/h (4 Bft)
28.12.2016 03:54 6,8 C 95 % 1039,1 hPa 0,0 l/m 10,4 km/h (2 Bft) W 268 0 min 0 W/m 6,1 C 3,8 C 14,5 km/h (3 Bft)
28.12.2016 03:57 6,8 C 95 % 1039,1 hPa 0,0 l/m 9,7 km/h (2 Bft) W 262 0 min 0 W/m 6,1 C 4,3 C 17,7 km/h (3 Bft)
28.12.2016 04:00 6,8 C 95 % 1039,1 hPa 0,0 l/m 9,2 km/h (2 Bft) W 263 0 min 0 W/m 6,1 C 4,6 C 19,3 km/h (3 Bft)
28.12.2016 04:03 6,8 C 95 % 1039,2 hPa 0,0 l/m 9,7 km/h (2 Bft) W-SW 254 0 min 0 W/m 6,1 C 4,3 C 16,1 km/h (3 Bft)
28.12.2016 04:06 6,8 C 95 % 1039,3 hPa 0,0 l/m 7,8 km/h (2 Bft) W 271 0 min 0 W/m 6,1 C 5,6 C 17,7 km/h (3 Bft)
28.12.2016 04:09 6,8 C 95 % 1039,3 hPa 0,0 l/m 9,9 km/h (2 Bft) W 261 0 min 0 W/m 6,1 C 4,1 C 16,1 km/h (3 Bft)
28.12.2016 04:12 6,7 C 95 % 1039,3 hPa 0,0 l/m 9,7 km/h (2 Bft) W-SW 254 0 min 0 W/m 6,0 C 4,2 C 17,7 km/h (3 Bft)
28.12.2016 04:15 6,7 C 95 % 1039,2 hPa 0,0 l/m 7,8 km/h (2 Bft) W 271 0 min 0 W/m 6,0 C 5,5 C 11,3 km/h (2 Bft)
28.12.2016 04:18 6,7 C 95 % 1039,2 hPa 0,0 l/m 6,3 km/h (2 Bft) W-SW 253 0 min 0 W/m 6,0 C 6,7 C 14,5 km/h (3 Bft)
28.12.2016 04:21 6,7 C 95 % 1039,1 hPa 0,0 l/m 10,0 km/h (2 Bft) W 264 0 min 0 W/m 6,0 C 4,0 C 17,7 km/h (3 Bft)
28.12.2016 04:24 6,7 C 95 % 1039,1 hPa 0,0 l/m 7,9 km/h (2 Bft) W 275 0 min 0 W/m 6,0 C 5,5 C 16,1 km/h (3 Bft)
28.12.2016 04:27 6,7 C 95 % 1039,1 hPa 0,0 l/m 7,2 km/h (2 Bft) W 260 0 min 0 W/m 6,0 C 6,0 C 14,5 km/h (3 Bft)
28.12.2016 04:30 6,6 C 95 % 1039,1 hPa 0,0 l/m 7,4 km/h (2 Bft) W 272 0 min 0 W/m 5,9 C 5,8 C 14,5 km/h (3 Bft)
28.12.2016 04:33 6,6 C 95 % 1039,1 hPa 0,0 l/m 10,3 km/h (2 Bft) W 269 0 min 0 W/m 5,9 C 3,6 C 16,1 km/h (3 Bft)
28.12.2016 04:36 6,6 C 95 % 1039,1 hPa 0,0 l/m 7,7 km/h (2 Bft) W-SW 252 0 min 0 W/m 5,9 C 5,5 C 14,5 km/h (3 Bft)
28.12.2016 04:39 6,6 C 95 % 1039,1 hPa 0,0 l/m 7,1 km/h (2 Bft) SW 227 0 min 0 W/m 5,9 C 6,0 C 12,9 km/h (3 Bft)
28.12.2016 04:42 6,6 C 95 % 1039,2 hPa 0,0 l/m 9,4 km/h (2 Bft) W 281 0 min 0 W/m 5,9 C 4,2 C 17,7 km/h (3 Bft)
28.12.2016 04:45 6,5 C 95 % 1039,2 hPa 0,0 l/m 9,1 km/h (2 Bft) W-NW 292 0 min 0 W/m 5,8 C 4,4 C 20,9 km/h (4 Bft)
28.12.2016 04:48 6,5 C 95 % 1039,3 hPa 0,0 l/m 10,1 km/h (2 Bft) W 277 0 min 0 W/m 5,8 C 3,7 C 19,3 km/h (3 Bft)
28.12.2016 04:51 6,5 C 95 % 1039,3 hPa 0,0 l/m 9,1 km/h (2 Bft) W-NW 294 0 min 0 W/m 5,8 C 4,4 C 19,3 km/h (3 Bft)
28.12.2016 04:54 6,5 C 95 % 1039,3 hPa 0,0 l/m 11,4 km/h (2 Bft) W-SW 255 0 min 0 W/m 5,8 C 2,8 C 19,3 km/h (3 Bft)
28.12.2016 04:57 6,5 C 95 % 1039,1 hPa 0,0 l/m 10,9 km/h (2 Bft) W 281 0 min 0 W/m 5,8 C 3,1 C 22,5 km/h (4 Bft)
28.12.2016 05:00 6,5 C 95 % 1039,2 hPa 0,0 l/m 12,1 km/h (2 Bft) N-NW 335 0 min 0 W/m 5,8 C 2,4 C 20,9 km/h (4 Bft)
28.12.2016 05:03 6,4 C 95 % 1039,2 hPa 0,0 l/m 9,7 km/h (2 Bft) W-NW 296 0 min 0 W/m 5,7 C 3,8 C 20,9 km/h (4 Bft)
28.12.2016 05:06 6,4 C 95 % 1039,1 hPa 0,0 l/m 8,7 km/h (2 Bft) W 270 0 min 0 W/m 5,7 C 4,5 C 20,9 km/h (4 Bft)
28.12.2016 05:09 6,4 C 95 % 1039,1 hPa 0,0 l/m 11,9 km/h (2 Bft) W 267 0 min 0 W/m 5,7 C 2,4 C 19,3 km/h (3 Bft)
28.12.2016 05:12 6,4 C 95 % 1039,1 hPa 0,0 l/m 11,7 km/h (2 Bft) W 265 0 min 0 W/m 5,7 C 2,5 C 22,5 km/h (4 Bft)
28.12.2016 05:15 6,4 C 95 % 1039,2 hPa 0,0 l/m 12,4 km/h (2 Bft) W-NW 284 0 min 0 W/m 5,7 C 2,1 C 17,7 km/h (3 Bft)
28.12.2016 05:18 6,4 C 95 % 1039,3 hPa 0,0 l/m 11,6 km/h (2 Bft) W 271 0 min 0 W/m 5,7 C 2,6 C 16,1 km/h (3 Bft)
28.12.2016 05:21 6,4 C 95 % 1039,4 hPa 0,0 l/m 7,7 km/h (2 Bft) W-NW 286 0 min 0 W/m 5,7 C 5,3 C 14,5 km/h (3 Bft)
28.12.2016 05:24 6,4 C 95 % 1039,5 hPa 0,0 l/m 9,5 km/h (2 Bft) W-NW 291 0 min 0 W/m 5,7 C 4,0 C 17,7 km/h (3 Bft)
28.12.2016 05:27 6,4 C 95 % 1039,5 hPa 0,0 l/m 8,5 km/h (2 Bft) SW 235 0 min 0 W/m 5,7 C 4,7 C 16,1 km/h (3 Bft)
28.12.2016 05:30 6,4 C 95 % 1039,3 hPa 0,0 l/m 11,8 km/h (2 Bft) W-NW 283 0 min 0 W/m 5,7 C 2,5 C 17,7 km/h (3 Bft)
28.12.2016 05:33 6,4 C 95 % 1039,3 hPa 0,0 l/m 11,5 km/h (2 Bft) W-SW 251 0 min 0 W/m 5,7 C 2,7 C 19,3 km/h (3 Bft)
28.12.2016 05:36 6,4 C 95 % 1039,3 hPa 0,0 l/m 9,5 km/h (2 Bft) W 261 0 min 0 W/m 5,7 C 4,0 C 17,7 km/h (3 Bft)
28.12.2016 05:39 6,3 C 95 % 1039,5 hPa 0,0 l/m 10,2 km/h (2 Bft) W-SW 252 0 min 0 W/m 5,6 C 3,4 C 17,7 km/h (3 Bft)
28.12.2016 05:42 6,3 C 95 % 1039,5 hPa 0,0 l/m 8,0 km/h (2 Bft) N 360 0 min 0 W/m 5,6 C 5,0 C 12,9 km/h (3 Bft)
28.12.2016 05:45 6,3 C 95 % 1039,5 hPa 0,0 l/m 9,2 km/h (2 Bft) W-SW 253 0 min 0 W/m 5,6 C 4,1 C 16,1 km/h (3 Bft)
28.12.2016 05:48 6,3 C 95 % 1039,5 hPa 0,0 l/m 7,8 km/h (2 Bft) W-NW 298 0 min 0 W/m 5,6 C 5,1 C 16,1 km/h (3 Bft)
28.12.2016 05:51 6,3 C 95 % 1039,5 hPa 0,0 l/m 8,1 km/h (2 Bft) W 261 0 min 0 W/m 5,6 C 4,9 C 16,1 km/h (3 Bft)
28.12.2016 05:54 6,3 C 95 % 1039,5 hPa 0,0 l/m 9,3 km/h (2 Bft) W 270 0 min 0 W/m 5,6 C 4,0 C 16,1 km/h (3 Bft)
28.12.2016 05:57 6,3 C 95 % 1039,5 hPa 0,0 l/m 9,9 km/h (2 Bft) W 280 0 min 0 W/m 5,6 C 3,6 C 17,7 km/h (3 Bft)
28.12.2016 06:00 6,3 C 95 % 1039,4 hPa 0,0 l/m 10,7 km/h (2 Bft) W 273 0 min 0 W/m 5,6 C 3,0 C 17,7 km/h (3 Bft)
28.12.2016 06:03 6,3 C 95 % 1039,6 hPa 0,0 l/m 8,2 km/h (2 Bft) W-NW 284 0 min 0 W/m 5,6 C 4,8 C 14,5 km/h (3 Bft)
28.12.2016 06:06 6,3 C 95 % 1039,6 hPa 0,0 l/m 7,4 km/h (2 Bft) W-NW 290 0 min 0 W/m 5,6 C 5,5 C 14,5 km/h (3 Bft)
28.12.2016 06:09 6,3 C 95 % 1039,5 hPa 0,0 l/m 7,6 km/h (2 Bft) W 269 0 min 0 W/m 5,6 C 5,3 C 14,5 km/h (3 Bft)
28.12.2016 06:12 6,3 C 95 % 1039,7 hPa 0,2 l/m 7,6 km/h (2 Bft) W 281 0 min 0 W/m 5,6 C 5,3 C 16,1 km/h (3 Bft)
28.12.2016 06:15 6,3 C 95 % 1039,6 hPa 0,0 l/m 9,0 km/h (2 Bft) W-SW 246 0 min 0 W/m 5,6 C 4,2 C 16,1 km/h (3 Bft)
28.12.2016 06:18 6,2 C 95 % 1039,6 hPa 0,0 l/m 12,5 km/h (2 Bft) W-SW 254 0 min 0 W/m 5,5 C 1,8 C 17,7 km/h (3 Bft)
28.12.2016 06:21 6,2 C 95 % 1039,6 hPa 0,0 l/m 10,9 km/h (2 Bft) W-NW 302 0 min 0 W/m 5,5 C 2,8 C 22,5 km/h (4 Bft)
28.12.2016 06:24 6,2 C 95 % 1039,6 hPa 0,0 l/m 9,6 km/h (2 Bft) W-NW 296 0 min 0 W/m 5,5 C 3,7 C 14,5 km/h (3 Bft)
28.12.2016 06:27 6,2 C 95 % 1039,6 hPa 0,0 l/m 8,6 km/h (2 Bft) NW 304 0 min 0 W/m 5,5 C 4,4 C 14,5 km/h (3 Bft)
28.12.2016 06:30 6,2 C 95 % 1039,5 hPa 0,0 l/m 7,7 km/h (2 Bft) W 281 0 min 0 W/m 5,5 C 5,1 C 16,1 km/h (3 Bft)
28.12.2016 06:33 6,2 C 95 % 1039,5 hPa 0,0 l/m 12,4 km/h (2 Bft) W 281 0 min 0 W/m 5,5 C 1,9 C 24,1 km/h (4 Bft)
28.12.2016 06:36 6,2 C 95 % 1039,6 hPa 0,0 l/m 8,8 km/h (2 Bft) W 274 0 min 0 W/m 5,5 C 4,2 C 16,1 km/h (3 Bft)
28.12.2016 06:39 6,2 C 95 % 1039,7 hPa 0,0 l/m 7,3 km/h (2 Bft) W-NW 288 0 min 0 W/m 5,5 C 5,4 C 16,1 km/h (3 Bft)
28.12.2016 06:42 6,2 C 95 % 1039,8 hPa 0,0 l/m 7,0 km/h (2 Bft) W 278 0 min 0 W/m 5,5 C 5,7 C 16,1 km/h (3 Bft)
28.12.2016 06:45 6,2 C 95 % 1039,8 hPa 0,0 l/m 10,1 km/h (2 Bft) W 280 0 min 0 W/m 5,5 C 3,3 C 17,7 km/h (3 Bft)
28.12.2016 06:48 6,2 C 95 % 1039,8 hPa 0,0 l/m 8,4 km/h (2 Bft) W-NW 290 0 min 0 W/m 5,5 C 4,6 C 16,1 km/h (3 Bft)
28.12.2016 06:51 6,2 C 95 % 1039,8 hPa 0,0 l/m 9,0 km/h (2 Bft) W 263 0 min 0 W/m 5,5 C 4,1 C 24,1 km/h (4 Bft)
28.12.2016 06:54 6,2 C 95 % 1039,7 hPa 0,0 l/m 9,7 km/h (2 Bft) W 278 0 min 0 W/m 5,5 C 3,6 C 24,1 km/h (4 Bft)
28.12.2016 06:57 6,2 C 95 % 1039,7 hPa 0,0 l/m 9,7 km/h (2 Bft) W 277 0 min 0 W/m 5,5 C 3,6 C 19,3 km/h (3 Bft)
28.12.2016 07:00 6,2 C 95 % 1039,7 hPa 0,0 l/m 6,9 km/h (2 Bft) W 273 0 min 0 W/m 5,5 C 5,8 C 14,5 km/h (3 Bft)
28.12.2016 07:03 6,2 C 95 % 1039,7 hPa 0,0 l/m 6,2 km/h (2 Bft) W 271 0 min 0 W/m 5,5 C 6,2 C 14,5 km/h (3 Bft)
28.12.2016 07:06 6,2 C 95 % 1039,7 hPa 0,0 l/m 9,6 km/h (2 Bft) N-NW 346 0 min 0 W/m 5,5 C 3,7 C 20,9 km/h (4 Bft)
28.12.2016 07:09 6,2 C 95 % 1039,7 hPa 0,0 l/m 7,1 km/h (2 Bft) N 360 0 min 0 W/m 5,5 C 5,6 C 16,1 km/h (3 Bft)
28.12.2016 07:12 6,2 C 95 % 1039,7 hPa 0,0 l/m 9,7 km/h (2 Bft) W-NW 283 0 min 0 W/m 5,5 C 3,6 C 19,3 km/h (3 Bft)
28.12.2016 07:15 6,2 C 95 % 1039,8 hPa 0,0 l/m 8,4 km/h (2 Bft) N-NW 336 0 min 0 W/m 5,5 C 4,6 C 19,3 km/h (3 Bft)
28.12.2016 07:18 6,2 C 95 % 1039,8 hPa 0,0 l/m 9,9 km/h (2 Bft) W-NW 286 0 min 0 W/m 5,5 C 3,5 C 17,7 km/h (3 Bft)
28.12.2016 07:21 6,2 C 95 % 1040,0 hPa 0,0 l/m 7,2 km/h (2 Bft) W 269 0 min 0 W/m 5,5 C 5,5 C 17,7 km/h (3 Bft)
28.12.2016 07:24 6,2 C 95 % 1040,0 hPa 0,0 l/m 5,9 km/h (2 Bft) W 263 0 min 0 W/m 5,5 C 6,2 C 14,5 km/h (3 Bft)
28.12.2016 07:27 6,2 C 95 % 1040,0 hPa 0,0 l/m 7,0 km/h (2 Bft) W-SW 253 0 min 0 W/m 5,5 C 5,7 C 16,1 km/h (3 Bft)
28.12.2016 07:30 6,2 C 95 % 1040,0 hPa 0,0 l/m 8,0 km/h (2 Bft) W-SW 242 0 min 0 W/m 5,5 C 4,9 C 14,5 km/h (3 Bft)
28.12.2016 07:33 6,2 C 95 % 1040,0 hPa 0,0 l/m 7,5 km/h (2 Bft) SW 227 0 min 0 W/m 5,5 C 5,3 C 14,5 km/h (3 Bft)
28.12.2016 07:36 6,2 C 95 % 1040,1 hPa 0,0 l/m 7,7 km/h (2 Bft) W 269 0 min 0 W/m 5,5 C 5,1 C 14,5 km/h (3 Bft)
28.12.2016 07:39 6,2 C 95 % 1040,1 hPa 0,0 l/m 10,4 km/h (2 Bft) W 265 0 min 0 W/m 5,5 C 3,1 C 16,1 km/h (3 Bft)
28.12.2016 07:42 6,2 C 95 % 1040,1 hPa 0,0 l/m 11,2 km/h (2 Bft) N-NW 330 0 min 0 W/m 5,5 C 2,6 C 19,3 km/h (3 Bft)
28.12.2016 07:45 6,2 C 95 % 1040,0 hPa 0,0 l/m 6,4 km/h (2 Bft) W-NW 300 0 min 0 W/m 5,5 C 6,2 C 12,9 km/h (3 Bft)
28.12.2016 07:48 6,2 C 95 % 1040,1 hPa 0,0 l/m 7,7 km/h (2 Bft) W 270 0 min 0 W/m 5,5 C 5,1 C 14,5 km/h (3 Bft)
28.12.2016 07:51 6,2 C 95 % 1040,0 hPa 0,0 l/m 7,8 km/h (2 Bft) W-NW 285 0 min 0 W/m 5,5 C 5,0 C 14,5 km/h (3 Bft)
28.12.2016 07:54 6,2 C 95 % 1039,9 hPa 0,0 l/m 8,2 km/h (2 Bft) W-NW 300 0 min 0 W/m 5,5 C 4,7 C 19,3 km/h (3 Bft)
28.12.2016 07:57 6,2 C 95 % 1039,9 hPa 0,0 l/m 7,7 km/h (2 Bft) W 263 0 min 0 W/m 5,5 C 5,1 C 12,9 km/h (3 Bft)
28.12.2016 08:00 6,2 C 95 % 1039,9 hPa 0,0 l/m 7,9 km/h (2 Bft) W-NW 287 0 min 0 W/m 5,5 C 4,9 C 16,1 km/h (3 Bft)
28.12.2016 08:03 6,2 C 95 % 1039,9 hPa 0,0 l/m 9,7 km/h (2 Bft) SW 232 0 min 0 W/m 5,5 C 3,6 C 17,7 km/h (3 Bft)
28.12.2016 08:06 6,1 C 95 % 1039,9 hPa 0,0 l/m 6,0 km/h (2 Bft) W 278 0 min 0 W/m 5,4 C 6,1 C 14,5 km/h (3 Bft)
28.12.2016 08:09 6,1 C 95 % 1040,0 hPa 0,0 l/m 7,7 km/h (2 Bft) W 270 0 min 0 W/m 5,4 C 5,0 C 16,1 km/h (3 Bft)
28.12.2016 08:12 6,1 C 95 % 1040,0 hPa 0,0 l/m 9,2 km/h (2 Bft) W 273 0 min 0 W/m 5,4 C 3,8 C 14,5 km/h (3 Bft)
28.12.2016 08:15 6,1 C 94 % 1040,0 hPa 0,0 l/m 8,4 km/h (2 Bft) SW 227 0 min 0 W/m 5,2 C 4,4 C 12,9 km/h (3 Bft)
28.12.2016 08:18 6,1 C 94 % 1040,0 hPa 0,0 l/m 6,3 km/h (2 Bft) SW 221 0 min 0 W/m 5,2 C 6,1 C 12,9 km/h (3 Bft)
28.12.2016 08:21 6,1 C 94 % 1040,0 hPa 0,0 l/m 8,5 km/h (2 Bft) W 264 0 min 0 W/m 5,2 C 4,4 C 14,5 km/h (3 Bft)
28.12.2016 08:24 6,1 C 94 % 1039,9 hPa 0,0 l/m 6,3 km/h (2 Bft) W-NW 299 0 min 0 W/m 5,2 C 6,1 C 14,5 km/h (3 Bft)
28.12.2016 08:27 6,1 C 94 % 1039,9 hPa 0,0 l/m 9,8 km/h (2 Bft) W-NW 290 0 min 0 W/m 5,2 C 3,4 C 16,1 km/h (3 Bft)
28.12.2016 08:30 6,1 C 94 % 1040,0 hPa 0,0 l/m 8,4 km/h (2 Bft) W 277 0 min 0 W/m 5,2 C 4,4 C 17,7 km/h (3 Bft)
28.12.2016 08:33 6,1 C 94 % 1040,1 hPa 0,0 l/m 10,0 km/h (2 Bft) W 264 0 min 0 W/m 5,2 C 3,3 C 17,7 km/h (3 Bft)
28.12.2016 08:36 6,1 C 94 % 1040,1 hPa 0,0 l/m 8,5 km/h (2 Bft) W-SW 248 0 min 0 W/m 5,2 C 4,4 C 17,7 km/h (3 Bft)
28.12.2016 08:39 6,0 C 94 % 1040,1 hPa 0,0 l/m 8,2 km/h (2 Bft) W-SW 250 0 min 0 W/m 5,1 C 4,5 C 17,7 km/h (3 Bft)
28.12.2016 08:42 6,0 C 94 % 1040,1 hPa 0,0 l/m 8,8 km/h (2 Bft) W-SW 250 0 min 0 W/m 5,1 C 4,0 C 17,7 km/h (3 Bft)
28.12.2016 08:45 6,0 C 94 % 1040,1 hPa 0,0 l/m 8,9 km/h (2 Bft) W 268 0 min 0 W/m 5,1 C 4,0 C 17,7 km/h (3 Bft)
28.12.2016 08:48 6,0 C 94 % 1040,2 hPa 0,0 l/m 7,9 km/h (2 Bft) W-NW 296 0 min 0 W/m 5,1 C 4,7 C 17,7 km/h (3 Bft)
28.12.2016 08:51 6,0 C 94 % 1040,3 hPa 0,0 l/m 8,2 km/h (2 Bft) W 279 0 min 0 W/m 5,1 C 4,5 C 16,1 km/h (3 Bft)
28.12.2016 08:54 5,9 C 94 % 1040,3 hPa 0,0 l/m 7,6 km/h (2 Bft) W 281 0 min 0 W/m 5,0 C 4,9 C 16,1 km/h (3 Bft)
28.12.2016 08:57 5,9 C 94 % 1040,3 hPa 0,0 l/m 9,0 km/h (2 Bft) W 279 0 min 0 W/m 5,0 C 3,8 C 14,5 km/h (3 Bft)
28.12.2016 09:00 5,9 C 94 % 1040,4 hPa 0,0 l/m 10,1 km/h (2 Bft) W-NW 295 0 min 0 W/m 5,0 C 3,0 C 16,1 km/h (3 Bft)
28.12.2016 09:03 5,9 C 94 % 1040,4 hPa 0,0 l/m 6,4 km/h (2 Bft) W-NW 302 0 min 5 W/m 5,0 C 5,9 C 17,7 km/h (3 Bft)
28.12.2016 09:06 5,9 C 94 % 1040,4 hPa 0,0 l/m 7,7 km/h (2 Bft) NW 326 0 min 7 W/m 5,0 C 4,8 C 14,5 km/h (3 Bft)
28.12.2016 09:09 5,9 C 94 % 1040,4 hPa 0,0 l/m 6,5 km/h (2 Bft) NW 315 0 min 9 W/m 5,0 C 5,8 C 19,3 km/h (3 Bft)
28.12.2016 09:12 5,9 C 94 % 1040,4 hPa 0,0 l/m 8,0 km/h (2 Bft) NW 318 0 min 11 W/m 5,0 C 4,5 C 16,1 km/h (3 Bft)
28.12.2016 09:15 5,9 C 94 % 1040,4 hPa 0,0 l/m 6,5 km/h (2 Bft) W-SW 258 0 min 11 W/m 5,0 C 5,8 C 12,9 km/h (3 Bft)
28.12.2016 09:18 5,9 C 94 % 1040,4 hPa 0,0 l/m 8,2 km/h (2 Bft) W-NW 288 0 min 12 W/m 5,0 C 4,4 C 16,1 km/h (3 Bft)
28.12.2016 09:21 5,9 C 94 % 1040,5 hPa 0,0 l/m 5,8 km/h (2 Bft) W-NW 302 0 min 12 W/m 5,0 C 5,9 C 16,1 km/h (3 Bft)
28.12.2016 09:24 5,9 C 94 % 1040,5 hPa 0,0 l/m 5,7 km/h (2 Bft) W-NW 284 0 min 14 W/m 5,0 C 5,9 C 12,9 km/h (3 Bft)
28.12.2016 09:27 5,9 C 94 % 1040,5 hPa 0,0 l/m 5,0 km/h (1 Bft) W-NW 285 0 min 16 W/m 5,0 C 5,9 C 14,5 km/h (3 Bft)
28.12.2016 09:30 5,9 C 94 % 1040,5 hPa 0,0 l/m 6,7 km/h (2 Bft) W-NW 290 0 min 16 W/m 5,0 C 5,7 C 16,1 km/h (3 Bft)
28.12.2016 09:33 5,9 C 94 % 1040,4 hPa 0,0 l/m 6,8 km/h (2 Bft) W-SW 248 0 min 18 W/m 5,0 C 5,6 C 14,5 km/h (3 Bft)
28.12.2016 09:36 6,0 C 94 % 1040,4 hPa 0,0 l/m 7,9 km/h (2 Bft) W-NW 292 0 min 19 W/m 5,1 C 4,7 C 14,5 km/h (3 Bft)
28.12.2016 09:39 6,0 C 94 % 1040,5 hPa 0,0 l/m 9,4 km/h (2 Bft) W 267 0 min 21 W/m 5,1 C 3,6 C 16,1 km/h (3 Bft)
28.12.2016 09:42 6,1 C 94 % 1040,5 hPa 0,0 l/m 6,7 km/h (2 Bft) W-SW 244 0 min 23 W/m 5,2 C 5,9 C 12,9 km/h (3 Bft)
28.12.2016 09:45 6,1 C 94 % 1040,6 hPa 0,0 l/m 6,2 km/h (2 Bft) W 275 0 min 25 W/m 5,2 C 6,1 C 12,9 km/h (3 Bft)
28.12.2016 09:48 6,1 C 94 % 1040,7 hPa 0,0 l/m 7,3 km/h (2 Bft) W 271 0 min 26 W/m 5,2 C 5,3 C 16,1 km/h (3 Bft)
28.12.2016 09:51 6,1 C 94 % 1040,6 hPa 0,0 l/m 7,5 km/h (2 Bft) W-NW 282 0 min 26 W/m 5,2 C 5,2 C 16,1 km/h (3 Bft)
28.12.2016 09:54 6,1 C 94 % 1040,7 hPa 0,0 l/m 5,4 km/h (2 Bft) W 262 0 min 33 W/m 5,2 C 6,1 C 14,5 km/h (3 Bft)
28.12.2016 09:57 6,1 C 94 % 1040,7 hPa 0,0 l/m 7,2 km/h (2 Bft) N-NW 327 0 min 30 W/m 5,2 C 5,4 C 14,5 km/h (3 Bft)
28.12.2016 10:00 6,1 C 93 % 1040,7 hPa 0,0 l/m 6,6 km/h (2 Bft) W-NW 294 0 min 33 W/m 5,1 C 6,0 C 14,5 km/h (3 Bft)
28.12.2016 10:03 6,2 C 93 % 1040,7 hPa 0,0 l/m 5,4 km/h (2 Bft) W-NW 296 0 min 39 W/m 5,2 C 6,2 C 12,9 km/h (3 Bft)
28.12.2016 10:06 6,3 C 93 % 1040,7 hPa 0,0 l/m 7,9 km/h (2 Bft) W-NW 287 0 min 46 W/m 5,3 C 5,0 C 17,7 km/h (3 Bft)
28.12.2016 10:09 6,4 C 93 % 1040,7 hPa 0,0 l/m 7,1 km/h (2 Bft) W-NW 301 0 min 44 W/m 5,4 C 5,8 C 14,5 km/h (3 Bft)
28.12.2016 10:12 6,5 C 93 % 1040,7 hPa 0,0 l/m 6,3 km/h (2 Bft) W-NW 300 0 min 37 W/m 5,5 C 6,5 C 11,3 km/h (2 Bft)
28.12.2016 10:15 6,6 C 93 % 1040,8 hPa 0,0 l/m 5,4 km/h (2 Bft) W 273 0 min 33 W/m 5,6 C 6,6 C 12,9 km/h (3 Bft)
28.12.2016 10:18 6,6 C 93 % 1040,8 hPa 0,0 l/m 5,2 km/h (1 Bft) W-NW 293 0 min 25 W/m 5,6 C 6,6 C 12,9 km/h (3 Bft)
28.12.2016 10:21 6,7 C 93 % 1040,9 hPa 0,0 l/m 5,3 km/h (1 Bft) W 270 0 min 21 W/m 5,6 C 6,7 C 12,9 km/h (3 Bft)
28.12.2016 10:24 6,7 C 93 % 1041,0 hPa 0,0 l/m 5,5 km/h (2 Bft) N-NO 12 0 min 25 W/m 5,6 C 6,7 C 9,7 km/h (2 Bft)
28.12.2016 10:27 6,7 C 93 % 1041,1 hPa 0,0 l/m 4,6 km/h (1 Bft) W 279 0 min 25 W/m 5,6 C 6,7 C 12,9 km/h (3 Bft)
28.12.2016 10:30 6,7 C 93 % 1041,1 hPa 0,0 l/m 3,2 km/h (1 Bft) W-NW 297 0 min 25 W/m 5,6 C 6,7 C 6,4 km/h (2 Bft)
28.12.2016 10:33 6,7 C 93 % 1041,1 hPa 0,0 l/m 4,5 km/h (1 Bft) W-NW 290 0 min 26 W/m 5,6 C 6,7 C 11,3 km/h (2 Bft)
28.12.2016 10:36 6,7 C 93 % 1041,1 hPa 0,0 l/m 3,7 km/h (1 Bft) NW 313 0 min 28 W/m 5,6 C 6,7 C 9,7 km/h (2 Bft)
28.12.2016 10:39 6,7 C 93 % 1041,1 hPa 0,0 l/m 4,6 km/h (1 Bft) W-SW 257 0 min 32 W/m 5,6 C 6,7 C 11,3 km/h (2 Bft)
28.12.2016 10:42 6,7 C 93 % 1041,1 hPa 0,0 l/m 3,3 km/h (1 Bft) W-NW 302 0 min 40 W/m 5,6 C 6,7 C 11,3 km/h (2 Bft)
28.12.2016 10:45 6,8 C 93 % 1041,1 hPa 0,0 l/m 5,8 km/h (2 Bft) W 277 0 min 42 W/m 5,7 C 6,8 C 11,3 km/h (2 Bft)
28.12.2016 10:48 6,8 C 93 % 1041,1 hPa 0,0 l/m 4,3 km/h (1 Bft) W 271 0 min 47 W/m 5,7 C 6,8 C 11,3 km/h (2 Bft)
28.12.2016 10:51 6,8 C 93 % 1041,2 hPa 0,0 l/m 5,6 km/h (2 Bft) W-SW 248 0 min 51 W/m 5,7 C 6,8 C 12,9 km/h (3 Bft)
28.12.2016 10:54 6,8 C 93 % 1041,2 hPa 0,0 l/m 7,1 km/h (2 Bft) W-NW 283 0 min 54 W/m 5,7 C 6,2 C 12,9 km/h (3 Bft)
28.12.2016 10:57 6,8 C 93 % 1041,2 hPa 0,0 l/m 4,9 km/h (1 Bft) W 273 0 min 62 W/m 5,7 C 6,8 C 12,9 km/h (3 Bft)
28.12.2016 11:00 6,8 C 93 % 1041,2 hPa 0,0 l/m 4,4 km/h (1 Bft) W-NW 298 0 min 62 W/m 5,7 C 6,8 C 12,9 km/h (3 Bft)
28.12.2016 11:03 6,9 C 92 % 1041,2 hPa 0,0 l/m 4,4 km/h (1 Bft) NW 321 0 min 77 W/m 5,7 C 6,9 C 9,7 km/h (2 Bft)
28.12.2016 11:06 6,9 C 92 % 1041,2 hPa 0,0 l/m 4,5 km/h (1 Bft) NW 323 0 min 60 W/m 5,7 C 6,9 C 11,3 km/h (2 Bft)
28.12.2016 11:09 7,0 C 92 % 1041,2 hPa 0,0 l/m 3,7 km/h (1 Bft) W-NW 286 0 min 67 W/m 5,8 C 7,0 C 11,3 km/h (2 Bft)
28.12.2016 11:12 7,1 C 92 % 1041,3 hPa 0,0 l/m 3,8 km/h (1 Bft) W 267 0 min 51 W/m 5,9 C 7,1 C 11,3 km/h (2 Bft)
28.12.2016 11:15 7,1 C 91 % 1041,4 hPa 0,0 l/m 2,9 km/h (1 Bft) W-NW 298 0 min 49 W/m 5,7 C 7,1 C 6,4 km/h (2 Bft)
28.12.2016 11:18 7,2 C 91 % 1041,5 hPa 0,0 l/m 4,3 km/h (1 Bft) W-NW 300 0 min 44 W/m 5,8 C 7,2 C 11,3 km/h (2 Bft)
28.12.2016 11:21 7,2 C 91 % 1041,5 hPa 0,0 l/m 2,5 km/h (1 Bft) W-NW 289 0 min 49 W/m 5,8 C 7,2 C 6,4 km/h (2 Bft)
28.12.2016 11:24 7,2 C 91 % 1041,4 hPa 0,0 l/m 5,6 km/h (2 Bft) W 269 0 min 51 W/m 5,8 C 7,2 C 11,3 km/h (2 Bft)
28.12.2016 11:27 7,2 C 91 % 1041,4 hPa 0,0 l/m 5,2 km/h (1 Bft) W-SW 250 0 min 60 W/m 5,8 C 7,2 C 14,5 km/h (3 Bft)
28.12.2016 11:30 7,2 C 91 % 1041,4 hPa 0,0 l/m 5,8 km/h (2 Bft) W 260 0 min 54 W/m 5,8 C 7,2 C 12,9 km/h (3 Bft)
28.12.2016 11:33 7,2 C 91 % 1041,4 hPa 0,0 l/m 6,0 km/h (2 Bft) W 277 0 min 56 W/m 5,8 C 7,2 C 12,9 km/h (3 Bft)
28.12.2016 11:36 7,2 C 90 % 1041,4 hPa 0,0 l/m 5,8 km/h (2 Bft) W 265 0 min 56 W/m 5,7 C 7,2 C 12,9 km/h (3 Bft)
28.12.2016 11:39 7,2 C 90 % 1041,4 hPa 0,0 l/m 4,0 km/h (1 Bft) W-NW 294 0 min 54 W/m 5,7 C 7,2 C 12,9 km/h (3 Bft)
28.12.2016 11:42 7,2 C 90 % 1041,3 hPa 0,0 l/m 9,8 km/h (2 Bft) W-SW 256 0 min 58 W/m 5,7 C 4,6 C 16,1 km/h (3 Bft)
28.12.2016 11:45 7,2 C 90 % 1041,3 hPa 0,0 l/m 9,9 km/h (2 Bft) W 279 0 min 62 W/m 5,7 C 4,6 C 17,7 km/h (3 Bft)
28.12.2016 11:48 7,3 C 90 % 1041,3 hPa 0,0 l/m 9,1 km/h (2 Bft) W-SW 257 0 min 53 W/m 5,8 C 5,2 C 17,7 km/h (3 Bft)
28.12.2016 11:51 7,3 C 89 % 1041,4 hPa 0,0 l/m 8,0 km/h (2 Bft) W-NW 294 0 min 51 W/m 5,6 C 6,0 C 17,7 km/h (3 Bft)
28.12.2016 11:54 7,3 C 89 % 1041,4 hPa 0,0 l/m 5,2 km/h (1 Bft) SW 232 0 min 49 W/m 5,6 C 7,3 C 12,9 km/h (3 Bft)
28.12.2016 11:57 7,3 C 89 % 1041,4 hPa 0,0 l/m 8,4 km/h (2 Bft) W-NW 283 0 min 53 W/m 5,6 C 5,7 C 16,1 km/h (3 Bft)
28.12.2016 12:00 7,3 C 89 % 1041,4 hPa 0,0 l/m 5,7 km/h (2 Bft) NW 326 0 min 46 W/m 5,6 C 7,3 C 12,9 km/h (3 Bft)
28.12.2016 12:03 7,3 C 89 % 1041,5 hPa 0,0 l/m 5,8 km/h (2 Bft) W-NW 292 0 min 44 W/m 5,6 C 7,3 C 14,5 km/h (3 Bft)
28.12.2016 12:06 7,3 C 89 % 1041,4 hPa 0,0 l/m 5,4 km/h (2 Bft) SW 236 0 min 51 W/m 5,6 C 7,3 C 11,3 km/h (2 Bft)
28.12.2016 12:09 7,3 C 89 % 1041,4 hPa 0,0 l/m 5,6 km/h (2 Bft) W 263 0 min 49 W/m 5,6 C 7,3 C 17,7 km/h (3 Bft)
28.12.2016 12:12 7,3 C 89 % 1041,3 hPa 0,0 l/m 5,2 km/h (1 Bft) W 263 0 min 49 W/m 5,6 C 7,3 C 12,9 km/h (3 Bft)
28.12.2016 12:15 7,3 C 89 % 1041,3 hPa 0,0 l/m 6,2 km/h (2 Bft) N-NW 332 0 min 47 W/m 5,6 C 7,3 C 11,3 km/h (2 Bft)
28.12.2016 12:18 7,3 C 89 % 1041,3 hPa 0,0 l/m 4,9 km/h (1 Bft) W 276 0 min 47 W/m 5,6 C 7,3 C 12,9 km/h (3 Bft)
28.12.2016 12:21 7,3 C 89 % 1041,2 hPa 0,0 l/m 6,9 km/h (2 Bft) W 281 0 min 47 W/m 5,6 C 6,9 C 14,5 km/h (3 Bft)
28.12.2016 12:24 7,3 C 89 % 1041,1 hPa 0,0 l/m 5,4 km/h (2 Bft) W-NW 300 0 min 53 W/m 5,6 C 7,3 C 11,3 km/h (2 Bft)
28.12.2016 12:27 7,3 C 89 % 1041,1 hPa 0,0 l/m 5,6 km/h (2 Bft) W-NW 283 0 min 47 W/m 5,6 C 7,3 C 16,1 km/h (3 Bft)
28.12.2016 12:30 7,3 C 89 % 1041,1 hPa 0,0 l/m 6,9 km/h (2 Bft) W-NW 298 0 min 46 W/m 5,6 C 6,9 C 14,5 km/h (3 Bft)
28.12.2016 12:33 7,3 C 89 % 1041,1 hPa 0,0 l/m 6,3 km/h (2 Bft) W-NW 292 0 min 47 W/m 5,6 C 7,3 C 14,5 km/h (3 Bft)
28.12.2016 12:36 7,3 C 89 % 1041,1 hPa 0,0 l/m 9,6 km/h (2 Bft) W 279 0 min 47 W/m 5,6 C 4,9 C 16,1 km/h (3 Bft)
28.12.2016 12:39 7,3 C 88 % 1041,1 hPa 0,0 l/m 9,1 km/h (2 Bft) W-NW 295 0 min 51 W/m 5,4 C 5,2 C 19,3 km/h (3 Bft)
28.12.2016 12:42 7,2 C 88 % 1041,1 hPa 0,0 l/m 9,3 km/h (2 Bft) W 278 0 min 49 W/m 5,3 C 5,0 C 20,9 km/h (4 Bft)
28.12.2016 12:45 7,3 C 88 % 1041,0 hPa 0,0 l/m 8,3 km/h (2 Bft) W 263 0 min 46 W/m 5,4 C 5,8 C 16,1 km/h (3 Bft)
28.12.2016 12:48 7,3 C 88 % 1040,9 hPa 0,0 l/m 9,2 km/h (2 Bft) W 271 0 min 47 W/m 5,4 C 5,1 C 16,1 km/h (3 Bft)
28.12.2016 12:51 7,3 C 88 % 1041,0 hPa 0,0 l/m 10,4 km/h (2 Bft) W 266 0 min 46 W/m 5,4 C 4,4 C 17,7 km/h (3 Bft)
28.12.2016 12:54 7,3 C 87 % 1041,0 hPa 0,0 l/m 9,4 km/h (2 Bft) W 272 0 min 49 W/m 5,3 C 5,0 C 16,1 km/h (3 Bft)
28.12.2016 12:57 7,3 C 87 % 1041,0 hPa 0,0 l/m 8,3 km/h (2 Bft) NW 311 0 min 46 W/m 5,3 C 5,8 C 12,9 km/h (3 Bft)
28.12.2016 13:00 7,3 C 87 % 1041,0 hPa 0,0 l/m 6,8 km/h (2 Bft) W-NW 294 0 min 49 W/m 5,3 C 7,0 C 14,5 km/h (3 Bft)
28.12.2016 13:03 7,3 C 87 % 1040,9 hPa 0,0 l/m 7,2 km/h (2 Bft) W-NW 301 0 min 51 W/m 5,3 C 6,7 C 14,5 km/h (3 Bft)
28.12.2016 13:06 7,3 C 87 % 1040,9 hPa 0,0 l/m 8,0 km/h (2 Bft) W-NW 284 0 min 42 W/m 5,3 C 6,0 C 14,5 km/h (3 Bft)
28.12.2016 13:09 7,3 C 87 % 1040,8 hPa 0,0 l/m 10,0 km/h (2 Bft) W 265 0 min 39 W/m 5,3 C 4,6 C 17,7 km/h (3 Bft)
28.12.2016 13:12 7,2 C 87 % 1040,8 hPa 0,0 l/m 7,1 km/h (2 Bft) W-NW 294 0 min 42 W/m 5,2 C 6,6 C 12,9 km/h (3 Bft)
28.12.2016 13:15 7,3 C 87 % 1040,9 hPa 0,0 l/m 8,7 km/h (2 Bft) W-NW 292 0 min 42 W/m 5,3 C 5,5 C 17,7 km/h (3 Bft)
28.12.2016 13:18 7,2 C 88 % 1040,9 hPa 0,0 l/m 8,0 km/h (2 Bft) W-NW 283 0 min 40 W/m 5,3 C 5,9 C 14,5 km/h (3 Bft)
28.12.2016 13:21 7,2 C 88 % 1040,9 hPa 0,0 l/m 8,6 km/h (2 Bft) W-NW 302 0 min 40 W/m 5,3 C 5,5 C 17,7 km/h (3 Bft)
28.12.2016 13:24 7,2 C 88 % 1040,9 hPa 0,0 l/m 8,8 km/h (2 Bft) W-NW 300 0 min 42 W/m 5,3 C 5,3 C 16,1 km/h (3 Bft)
28.12.2016 13:27 7,2 C 88 % 1041,0 hPa 0,0 l/m 6,7 km/h (2 Bft) NW 307 0 min 37 W/m 5,3 C 7,0 C 11,3 km/h (2 Bft)
28.12.2016 13:30 7,2 C 87 % 1041,0 hPa 0,0 l/m 3,2 km/h (1 Bft) W 273 0 min 33 W/m 5,2 C 7,2 C 8,0 km/h (2 Bft)
28.12.2016 13:33 7,2 C 87 % 1041,0 hPa 0,0 l/m 3,9 km/h (1 Bft) W 281 0 min 33 W/m 5,2 C 7,2 C 11,3 km/h (2 Bft)
28.12.2016 13:36 7,2 C 87 % 1040,9 hPa 0,0 l/m 6,0 km/h (2 Bft) W-NW 291 0 min 33 W/m 5,2 C 7,2 C 14,5 km/h (3 Bft)
28.12.2016 13:39 7,2 C 87 % 1040,8 hPa 0,0 l/m 8,9 km/h (2 Bft) W 270 0 min 35 W/m 5,2 C 5,2 C 16,1 km/h (3 Bft)
28.12.2016 13:42 7,2 C 87 % 1040,9 hPa 0,0 l/m 5,9 km/h (2 Bft) W-NW 290 0 min 33 W/m 5,2 C 7,2 C 12,9 km/h (3 Bft)
28.12.2016 13:45 7,2 C 87 % 1040,8 hPa 0,0 l/m 4,7 km/h (1 Bft) W 261 0 min 32 W/m 5,2 C 7,2 C 11,3 km/h (2 Bft)
28.12.2016 13:48 7,2 C 86 % 1040,9 hPa 0,0 l/m 4,9 km/h (1 Bft) W-NW 288 0 min 26 W/m 5,0 C 7,2 C 11,3 km/h (2 Bft)
28.12.2016 13:51 7,1 C 86 % 1040,9 hPa 0,0 l/m 5,9 km/h (2 Bft) W 268 0 min 26 W/m 4,9 C 7,1 C 12,9 km/h (3 Bft)
28.12.2016 13:54 7,1 C 86 % 1040,9 hPa 0,0 l/m 4,6 km/h (1 Bft) W 266 0 min 28 W/m 4,9 C 7,1 C 9,7 km/h (2 Bft)
28.12.2016 13:57 7,1 C 86 % 1041,0 hPa 0,0 l/m 7,4 km/h (2 Bft) W-NW 300 0 min 28 W/m 4,9 C 6,3 C 14,5 km/h (3 Bft)
28.12.2016 14:00 7,1 C 86 % 1040,9 hPa 0,0 l/m 5,6 km/h (2 Bft) N-NW 327 0 min 28 W/m 4,9 C 7,1 C 12,9 km/h (3 Bft)
28.12.2016 14:03 7,2 C 86 % 1040,9 hPa 0,0 l/m 5,5 km/h (2 Bft) N-NW 345 0 min 30 W/m 5,0 C 7,2 C 11,3 km/h (2 Bft)
28.12.2016 14:06 7,2 C 85 % 1040,9 hPa 0,0 l/m 6,6 km/h (2 Bft) N-NW 346 0 min 28 W/m 4,9 C 7,1 C 14,5 km/h (3 Bft)
28.12.2016 14:09 7,1 C 85 % 1041,0 hPa 0,0 l/m 7,0 km/h (2 Bft) NW 312 0 min 28 W/m 4,8 C 6,6 C 14,5 km/h (3 Bft)
28.12.2016 14:12 7,1 C 85 % 1040,9 hPa 0,0 l/m 10,8 km/h (2 Bft) NW 323 0 min 26 W/m 4,8 C 3,9 C 19,3 km/h (3 Bft)
28.12.2016 14:15 7,1 C 84 % 1040,9 hPa 0,0 l/m 11,5 km/h (2 Bft) W 267 0 min 28 W/m 4,6 C 3,5 C 17,7 km/h (3 Bft)
28.12.2016 14:18 7,1 C 83 % 1040,9 hPa 0,0 l/m 11,3 km/h (2 Bft) N-NW 334 0 min 28 W/m 4,4 C 3,6 C 17,7 km/h (3 Bft)
28.12.2016 14:21 7,1 C 83 % 1040,8 hPa 0,0 l/m 8,0 km/h (2 Bft) NW 324 0 min 26 W/m 4,4 C 5,8 C 14,5 km/h (3 Bft)
28.12.2016 14:24 7,2 C 84 % 1040,8 hPa 0,0 l/m 7,1 km/h (2 Bft) NW 317 0 min 23 W/m 4,7 C 6,6 C 11,3 km/h (2 Bft)
28.12.2016 14:27 7,2 C 84 % 1040,9 hPa 0,0 l/m 7,6 km/h (2 Bft) N-NW 336 0 min 21 W/m 4,7 C 6,2 C 12,9 km/h (3 Bft)
28.12.2016 14:30 7,2 C 84 % 1040,9 hPa 0,0 l/m 5,0 km/h (1 Bft) NW 305 0 min 19 W/m 4,7 C 7,2 C 11,3 km/h (2 Bft)
28.12.2016 14:33 7,2 C 84 % 1040,9 hPa 0,0 l/m 5,5 km/h (2 Bft) W 279 0 min 21 W/m 4,7 C 7,2 C 11,3 km/h (2 Bft)
28.12.2016 14:36 7,2 C 84 % 1040,9 hPa 0,0 l/m 4,4 km/h (1 Bft) NW 307 0 min 19 W/m 4,7 C 7,2 C 12,9 km/h (3 Bft)
28.12.2016 14:39 7,2 C 85 % 1040,8 hPa 0,0 l/m 4,8 km/h (1 Bft) W-NW 286 0 min 19 W/m 4,9 C 7,2 C 9,7 km/h (2 Bft)
28.12.2016 14:42 7,2 C 85 % 1040,8 hPa 0,0 l/m 5,1 km/h (1 Bft) W 280 0 min 21 W/m 4,9 C 7,2 C 9,7 km/h (2 Bft)
28.12.2016 14:45 7,2 C 85 % 1040,7 hPa 0,0 l/m 4,9 km/h (1 Bft) NW 314 0 min 21 W/m 4,9 C 7,2 C 11,3 km/h (2 Bft)
28.12.2016 14:48 7,1 C 85 % 1040,8 hPa 0,0 l/m 3,9 km/h (1 Bft) W-NW 286 0 min 18 W/m 4,8 C 7,1 C 9,7 km/h (2 Bft)
28.12.2016 14:51 7,1 C 85 % 1040,8 hPa 0,0 l/m 3,8 km/h (1 Bft) W 270 0 min 16 W/m 4,8 C 7,1 C 12,9 km/h (3 Bft)
28.12.2016 14:54 7,1 C 85 % 1040,8 hPa 0,0 l/m 3,6 km/h (1 Bft) W-NW 295 0 min 16 W/m 4,8 C 7,1 C 8,0 km/h (2 Bft)
28.12.2016 14:57 7,1 C 85 % 1040,8 hPa 0,0 l/m 4,1 km/h (1 Bft) W 276 0 min 14 W/m 4,8 C 7,1 C 12,9 km/h (3 Bft)
28.12.2016 15:00 7,1 C 85 % 1040,7 hPa 0,0 l/m 5,1 km/h (1 Bft) W-NW 284 0 min 16 W/m 4,8 C 7,1 C 14,5 km/h (3 Bft)
28.12.2016 15:03 7,1 C 85 % 1040,7 hPa 0,0 l/m 9,3 km/h (2 Bft) W-NW 288 0 min 18 W/m 4,8 C 4,9 C 16,1 km/h (3 Bft)
28.12.2016 15:06 7,1 C 85 % 1040,7 hPa 0,0 l/m 5,4 km/h (2 Bft) W-NW 286 0 min 14 W/m 4,8 C 7,1 C 11,3 km/h (2 Bft)
28.12.2016 15:09 7,1 C 85 % 1040,7 hPa 0,0 l/m 5,1 km/h (1 Bft) W-SW 251 0 min 14 W/m 4,8 C 7,1 C 11,3 km/h (2 Bft)
28.12.2016 15:12 7,0 C 85 % 1040,7 hPa 0,0 l/m 7,1 km/h (2 Bft) W-NW 283 0 min 16 W/m 4,7 C 6,4 C 14,5 km/h (3 Bft)
28.12.2016 15:15 7,0 C 85 % 1040,7 hPa 0,0 l/m 7,2 km/h (2 Bft) W 275 0 min 14 W/m 4,7 C 6,3 C 14,5 km/h (3 Bft)
28.12.2016 15:18 7,0 C 85 % 1040,7 hPa 0,0 l/m 2,9 km/h (1 Bft) W 263 0 min 12 W/m 4,7 C 7,0 C 8,0 km/h (2 Bft)
28.12.2016 15:21 7,0 C 84 % 1040,7 hPa 0,0 l/m 4,5 km/h (1 Bft) NW 305 0 min 12 W/m 4,5 C 7,0 C 9,7 km/h (2 Bft)
28.12.2016 15:24 7,0 C 84 % 1040,8 hPa 0,0 l/m 4,5 km/h (1 Bft) W-SW 252 0 min 12 W/m 4,5 C 7,0 C 11,3 km/h (2 Bft)
28.12.2016 15:27 7,0 C 84 % 1040,8 hPa 0,0 l/m 5,0 km/h (1 Bft) W-SW 247 0 min 11 W/m 4,5 C 7,0 C 11,3 km/h (2 Bft)
28.12.2016 15:30 7,0 C 84 % 1040,7 hPa 0,0 l/m 7,0 km/h (2 Bft) W 269 0 min 11 W/m 4,5 C 6,5 C 16,1 km/h (3 Bft)
28.12.2016 15:33 7,0 C 83 % 1040,8 hPa 0,0 l/m 5,0 km/h (1 Bft) NW 319 0 min 11 W/m 4,3 C 7,0 C 17,7 km/h (3 Bft)
28.12.2016 15:36 7,0 C 83 % 1040,9 hPa 0,0 l/m 4,5 km/h (1 Bft) NW 304 0 min 9 W/m 4,3 C 7,0 C 11,3 km/h (2 Bft)
28.12.2016 15:39 7,0 C 83 % 1040,9 hPa 0,0 l/m 7,0 km/h (2 Bft) NW 309 0 min 9 W/m 4,3 C 6,5 C 17,7 km/h (3 Bft)
28.12.2016 15:42 7,0 C 82 % 1040,9 hPa 0,0 l/m 7,6 km/h (2 Bft) N-NW 333 0 min 5 W/m 4,1 C 6,0 C 19,3 km/h (3 Bft)
28.12.2016 15:45 7,0 C 82 % 1040,9 hPa 0,0 l/m 6,1 km/h (2 Bft) N-NW 338 0 min 5 W/m 4,1 C 7,0 C 11,3 km/h (2 Bft)
28.12.2016 15:48 7,0 C 81 % 1040,8 hPa 0,0 l/m 3,2 km/h (1 Bft) NW 322 0 min 5 W/m 4,0 C 7,0 C 9,7 km/h (2 Bft)
28.12.2016 15:51 7,1 C 82 % 1040,8 hPa 0,0 l/m 5,4 km/h (2 Bft) W-SW 254 0 min 5 W/m 4,2 C 7,1 C 11,3 km/h (2 Bft)
28.12.2016 15:54 7,1 C 82 % 1040,8 hPa 0,0 l/m 5,5 km/h (2 Bft) W-NW 297 0 min 0 W/m 4,2 C 7,1 C 12,9 km/h (3 Bft)
28.12.2016 15:57 7,1 C 83 % 1040,8 hPa 0,0 l/m 3,5 km/h (1 Bft) W 265 0 min 0 W/m 4,4 C 7,1 C 11,3 km/h (2 Bft)
28.12.2016 16:00 7,1 C 83 % 1040,8 hPa 0,0 l/m 4,6 km/h (1 Bft) W-NW 282 0 min 0 W/m 4,4 C 7,1 C 8,0 km/h (2 Bft)
28.12.2016 16:03 7,1 C 83 % 1040,8 hPa 0,0 l/m 5,1 km/h (1 Bft) W 272 0 min 0 W/m 4,4 C 7,1 C 12,9 km/h (3 Bft)
28.12.2016 16:06 7,1 C 83 % 1040,7 hPa 0,0 l/m 4,7 km/h (1 Bft) W-NW 292 0 min 0 W/m 4,4 C 7,1 C 12,9 km/h (3 Bft)
28.12.2016 16:09 7,0 C 83 % 1040,8 hPa 0,0 l/m 4,0 km/h (1 Bft) W 261 0 min 0 W/m 4,3 C 7,0 C 11,3 km/h (2 Bft)
28.12.2016 16:12 7,0 C 83 % 1040,8 hPa 0,0 l/m 5,5 km/h (2 Bft) W 271 0 min 0 W/m 4,3 C 7,0 C 11,3 km/h (2 Bft)
28.12.2016 16:15 7,0 C 82 % 1040,8 hPa 0,0 l/m 5,1 km/h (1 Bft) W-SW 257 0 min 0 W/m 4,1 C 7,0 C 11,3 km/h (2 Bft)
28.12.2016 16:18 7,0 C 83 % 1040,8 hPa 0,0 l/m 4,4 km/h (1 Bft) W-NW 302 0 min 0 W/m 4,3 C 7,0 C 9,7 km/h (2 Bft)
28.12.2016 16:21 6,9 C 83 % 1040,8 hPa 0,0 l/m 5,9 km/h (2 Bft) W-NW 286 0 min 0 W/m 4,2 C 6,9 C 12,9 km/h (3 Bft)
28.12.2016 16:24 6,9 C 82 % 1040,8 hPa 0,0 l/m 5,9 km/h (2 Bft) NW 315 0 min 0 W/m 4,0 C 6,9 C 14,5 km/h (3 Bft)
28.12.2016 16:27 6,9 C 82 % 1040,8 hPa 0,0 l/m 3,7 km/h (1 Bft) NW 317 0 min 0 W/m 4,0 C 6,9 C 6,4 km/h (2 Bft)
28.12.2016 16:30 6,9 C 82 % 1040,9 hPa 0,0 l/m 4,8 km/h (1 Bft) W 274 0 min 0 W/m 4,0 C 6,9 C 11,3 km/h (2 Bft)
28.12.2016 16:33 6,9 C 82 % 1040,9 hPa 0,0 l/m 6,3 km/h (2 Bft) W 280 0 min 0 W/m 4,0 C 6,9 C 14,5 km/h (3 Bft)
28.12.2016 16:36 6,9 C 82 % 1040,9 hPa 0,0 l/m 6,1 km/h (2 Bft) W-NW 284 0 min 0 W/m 4,0 C 6,9 C 11,3 km/h (2 Bft)
28.12.2016 16:39 6,9 C 82 % 1040,9 hPa 0,0 l/m 4,6 km/h (1 Bft) W-NW 300 0 min 0 W/m 4,0 C 6,9 C 9,7 km/h (2 Bft)
28.12.2016 16:42 6,9 C 82 % 1040,9 hPa 0,0 l/m 7,4 km/h (2 Bft) W-NW 298 0 min 0 W/m 4,0 C 6,1 C 12,9 km/h (3 Bft)
28.12.2016 16:45 6,9 C 83 % 1040,9 hPa 0,0 l/m 7,0 km/h (2 Bft) W 275 0 min 0 W/m 4,2 C 6,4 C 12,9 km/h (3 Bft)
28.12.2016 16:48 6,9 C 82 % 1040,9 hPa 0,0 l/m 4,7 km/h (1 Bft) W-NW 289 0 min 0 W/m 4,0 C 6,9 C 9,7 km/h (2 Bft)
28.12.2016 16:51 6,9 C 82 % 1040,9 hPa 0,0 l/m 7,7 km/h (2 Bft) N-NW 346 0 min 0 W/m 4,0 C 5,8 C 14,5 km/h (3 Bft)
28.12.2016 16:54 6,9 C 81 % 1040,9 hPa 0,0 l/m 6,9 km/h (2 Bft) W 275 0 min 0 W/m 3,9 C 6,5 C 14,5 km/h (3 Bft)
28.12.2016 16:57 6,9 C 81 % 1040,8 hPa 0,0 l/m 5,3 km/h (1 Bft) W-NW 284 0 min 0 W/m 3,9 C 6,9 C 9,7 km/h (2 Bft)
28.12.2016 17:00 6,9 C 81 % 1040,8 hPa 0,0 l/m 5,8 km/h (2 Bft) W-SW 253 0 min 0 W/m 3,9 C 6,9 C 11,3 km/h (2 Bft)
28.12.2016 17:03 6,9 C 81 % 1040,8 hPa 0,0 l/m 3,9 km/h (1 Bft) W 273 0 min 0 W/m 3,9 C 6,9 C 9,7 km/h (2 Bft)
28.12.2016 17:06 6,9 C 81 % 1040,9 hPa 0,0 l/m 3,2 km/h (1 Bft) W-NW 293 0 min 0 W/m 3,9 C 6,9 C 9,7 km/h (2 Bft)
28.12.2016 17:09 6,9 C 81 % 1041,0 hPa 0,0 l/m 2,4 km/h (1 Bft) W-NW 284 0 min 0 W/m 3,9 C 6,9 C 6,4 km/h (2 Bft)
28.12.2016 17:12 6,9 C 82 % 1040,9 hPa 0,0 l/m 2,3 km/h (1 Bft) W-NW 294 0 min 0 W/m 4,0 C 6,9 C 6,4 km/h (2 Bft)
28.12.2016 17:15 6,9 C 82 % 1040,9 hPa 0,0 l/m 2,5 km/h (1 Bft) W-NW 290 0 min 0 W/m 4,0 C 6,9 C 9,7 km/h (2 Bft)
28.12.2016 17:18 6,9 C 82 % 1041,0 hPa 0,0 l/m 1,6 km/h (1 Bft) W-NW 287 0 min 0 W/m 4,0 C 6,9 C 3,2 km/h (1 Bft)
28.12.2016 17:21 6,9 C 82 % 1040,9 hPa 0,0 l/m 2,8 km/h (1 Bft) W-NW 303 0 min 0 W/m 4,0 C 6,9 C 8,0 km/h (2 Bft)
28.12.2016 17:24 6,9 C 82 % 1041,0 hPa 0,0 l/m 3,1 km/h (1 Bft) W-NW 288 0 min 0 W/m 4,0 C 6,9 C 6,4 km/h (2 Bft)
28.12.2016 17:27 6,9 C 83 % 1040,9 hPa 0,0 l/m 3,9 km/h (1 Bft) W 267 0 min 0 W/m 4,2 C 6,9 C 9,7 km/h (2 Bft)
28.12.2016 17:30 6,9 C 83 % 1041,0 hPa 0,0 l/m 2,8 km/h (1 Bft) N-NW 330 0 min 0 W/m 4,2 C 6,9 C 4,8 km/h (1 Bft)
28.12.2016 17:33 6,9 C 83 % 1041,0 hPa 0,0 l/m 4,1 km/h (1 Bft) W 268 0 min 0 W/m 4,2 C 6,9 C 9,7 km/h (2 Bft)
28.12.2016 17:36 6,9 C 83 % 1041,0 hPa 0,0 l/m 3,7 km/h (1 Bft) W 261 0 min 0 W/m 4,2 C 6,9 C 6,4 km/h (2 Bft)
28.12.2016 17:39 6,8 C 83 % 1041,0 hPa 0,0 l/m 2,3 km/h (1 Bft) W-NW 283 0 min 0 W/m 4,1 C 6,8 C 4,8 km/h (1 Bft)
28.12.2016 17:42 6,8 C 83 % 1041,0 hPa 0,0 l/m 2,5 km/h (1 Bft) W 280 0 min 0 W/m 4,1 C 6,8 C 4,8 km/h (1 Bft)
28.12.2016 17:45 6,8 C 83 % 1041,1 hPa 0,0 l/m 3,9 km/h (1 Bft) W-SW 252 0 min 0 W/m 4,1 C 6,8 C 9,7 km/h (2 Bft)
28.12.2016 17:48 6,8 C 84 % 1041,2 hPa 0,0 l/m 5,3 km/h (1 Bft) W 274 0 min 0 W/m 4,3 C 6,8 C 11,3 km/h (2 Bft)
28.12.2016 17:51 6,8 C 84 % 1041,2 hPa 0,2 l/m 5,3 km/h (1 Bft) W 263 0 min 0 W/m 4,3 C 6,8 C 11,3 km/h (2 Bft)
28.12.2016 17:54 6,8 C 84 % 1041,2 hPa 0,0 l/m 5,1 km/h (1 Bft) W 263 0 min 0 W/m 4,3 C 6,8 C 11,3 km/h (2 Bft)
28.12.2016 17:57 6,8 C 84 % 1041,2 hPa 0,0 l/m 4,3 km/h (1 Bft) NW 320 0 min 0 W/m 4,3 C 6,8 C 6,4 km/h (2 Bft)
28.12.2016 18:00 6,8 C 84 % 1041,2 hPa 0,0 l/m 3,7 km/h (1 Bft) W 261 0 min 0 W/m 4,3 C 6,8 C 9,7 km/h (2 Bft)
28.12.2016 18:03 6,8 C 84 % 1041,1 hPa 0,0 l/m 3,8 km/h (1 Bft) W 271 0 min 0 W/m 4,3 C 6,8 C 9,7 km/h (2 Bft)
28.12.2016 18:06 6,7 C 84 % 1041,1 hPa 0,0 l/m 4,0 km/h (1 Bft) W 269 0 min 0 W/m 4,2 C 6,7 C 6,4 km/h (2 Bft)
28.12.2016 18:09 6,7 C 84 % 1041,1 hPa 0,0 l/m 6,5 km/h (2 Bft) W 262 0 min 0 W/m 4,2 C 6,6 C 11,3 km/h (2 Bft)
28.12.2016 18:12 6,7 C 83 % 1041,1 hPa 0,0 l/m 5,0 km/h (1 Bft) W 261 0 min 0 W/m 4,0 C 6,7 C 11,3 km/h (2 Bft)
28.12.2016 18:15 6,6 C 83 % 1041,1 hPa 0,0 l/m 4,6 km/h (1 Bft) W-NW 286 0 min 0 W/m 3,9 C 6,6 C 6,4 km/h (2 Bft)
28.12.2016 18:18 6,6 C 83 % 1041,0 hPa 0,0 l/m 5,7 km/h (2 Bft) W-NW 300 0 min 0 W/m 3,9 C 6,6 C 12,9 km/h (3 Bft)
28.12.2016 18:21 6,6 C 83 % 1041,0 hPa 0,0 l/m 6,5 km/h (2 Bft) W 278 0 min 0 W/m 3,9 C 6,5 C 12,9 km/h (3 Bft)
28.12.2016 18:24 6,6 C 83 % 1041,1 hPa 0,0 l/m 2,7 km/h (1 Bft) NW 306 0 min 0 W/m 3,9 C 6,6 C 9,7 km/h (2 Bft)
28.12.2016 18:27 6,6 C 82 % 1041,1 hPa 0,0 l/m 5,6 km/h (2 Bft) W-NW 297 0 min 0 W/m 3,8 C 6,6 C 11,3 km/h (2 Bft)
28.12.2016 18:30 6,6 C 82 % 1041,1 hPa 0,0 l/m 5,4 km/h (2 Bft) NW 316 0 min 0 W/m 3,8 C 6,6 C 9,7 km/h (2 Bft)
28.12.2016 18:33 6,6 C 82 % 1041,1 hPa 0,0 l/m 1,8 km/h (1 Bft) SW 229 0 min 0 W/m 3,8 C 6,6 C 4,8 km/h (1 Bft)
28.12.2016 18:36 6,6 C 82 % 1041,2 hPa 0,0 l/m 2,8 km/h (1 Bft) W-NW 285 0 min 0 W/m 3,8 C 6,6 C 6,4 km/h (2 Bft)
28.12.2016 18:39 6,6 C 82 % 1041,2 hPa 0,0 l/m 3,9 km/h (1 Bft) W 279 0 min 0 W/m 3,8 C 6,6 C 6,4 km/h (2 Bft)
28.12.2016 18:42 6,6 C 82 % 1041,3 hPa 0,0 l/m 3,5 km/h (1 Bft) W 272 0 min 0 W/m 3,8 C 6,6 C 8,0 km/h (2 Bft)
28.12.2016 18:45 6,6 C 82 % 1041,3 hPa 0,0 l/m 3,9 km/h (1 Bft) W 277 0 min 0 W/m 3,8 C 6,6 C 9,7 km/h (2 Bft)
28.12.2016 18:48 6,6 C 83 % 1041,2 hPa 0,0 l/m 4,2 km/h (1 Bft) W 273 0 min 0 W/m 3,9 C 6,6 C 9,7 km/h (2 Bft)
28.12.2016 18:51 6,6 C 83 % 1041,2 hPa 0,0 l/m 4,7 km/h (1 Bft) W 271 0 min 0 W/m 3,9 C 6,6 C 9,7 km/h (2 Bft)
28.12.2016 18:54 6,6 C 83 % 1041,2 hPa 0,0 l/m 3,5 km/h (1 Bft) W 261 0 min 0 W/m 3,9 C 6,6 C 9,7 km/h (2 Bft)
28.12.2016 18:57 6,6 C 83 % 1041,2 hPa 0,0 l/m 3,3 km/h (1 Bft) W-SW 238 0 min 0 W/m 3,9 C 6,6 C 6,4 km/h (2 Bft)
28.12.2016 19:00 6,6 C 83 % 1041,3 hPa 0,0 l/m 3,8 km/h (1 Bft) SW 236 0 min 0 W/m 3,9 C 6,6 C 6,4 km/h (2 Bft)
28.12.2016 19:03 6,6 C 84 % 1041,3 hPa 0,0 l/m 4,5 km/h (1 Bft) W 259 0 min 0 W/m 4,1 C 6,6 C 6,4 km/h (2 Bft)
28.12.2016 19:06 6,6 C 84 % 1041,3 hPa 0,0 l/m 3,7 km/h (1 Bft) W-SW 243 0 min 0 W/m 4,1 C 6,6 C 6,4 km/h (2 Bft)
28.12.2016 19:09 6,6 C 85 % 1041,2 hPa 0,0 l/m 4,4 km/h (1 Bft) W 274 0 min 0 W/m 4,3 C 6,6 C 9,7 km/h (2 Bft)
28.12.2016 19:12 6,6 C 85 % 1041,2 hPa 0,0 l/m 3,0 km/h (1 Bft) W 259 0 min 0 W/m 4,3 C 6,6 C 4,8 km/h (1 Bft)
28.12.2016 19:15 6,6 C 85 % 1041,3 hPa 0,0 l/m 2,2 km/h (1 Bft) W 259 0 min 0 W/m 4,3 C 6,6 C 3,2 km/h (1 Bft)
28.12.2016 19:18 6,6 C 86 % 1041,2 hPa 0,0 l/m 2,0 km/h (1 Bft) W 259 0 min 0 W/m 4,4 C 6,6 C 4,8 km/h (1 Bft)
28.12.2016 19:21 6,6 C 86 % 1041,2 hPa 0,0 l/m 3,2 km/h (1 Bft) W-SW 237 0 min 0 W/m 4,4 C 6,6 C 6,4 km/h (2 Bft)
28.12.2016 19:24 6,6 C 86 % 1041,1 hPa 0,0 l/m 4,2 km/h (1 Bft) W 265 0 min 0 W/m 4,4 C 6,6 C 6,4 km/h (2 Bft)
28.12.2016 19:27 6,5 C 86 % 1041,2 hPa 0,0 l/m 2,8 km/h (1 Bft) W 263 0 min 0 W/m 4,3 C 6,5 C 4,8 km/h (1 Bft)
28.12.2016 19:30 6,5 C 86 % 1041,2 hPa 0,0 l/m 3,1 km/h (1 Bft) W-SW 254 0 min 0 W/m 4,3 C 6,5 C 4,8 km/h (1 Bft)
28.12.2016 19:33 6,5 C 86 % 1041,2 hPa 0,0 l/m 2,1 km/h (1 Bft) W-SW 254 0 min 0 W/m 4,3 C 6,5 C 4,8 km/h (1 Bft)
28.12.2016 19:36 6,4 C 86 % 1041,2 hPa 0,0 l/m 2,5 km/h (1 Bft) W 273 0 min 0 W/m 4,2 C 6,4 C 6,4 km/h (2 Bft)
28.12.2016 19:39 6,4 C 86 % 1041,1 hPa 0,0 l/m 3,8 km/h (1 Bft) SW 231 0 min 0 W/m 4,2 C 6,4 C 6,4 km/h (2 Bft)
28.12.2016 19:42 6,4 C 86 % 1041,1 hPa 0,0 l/m 3,2 km/h (1 Bft) W-SW 249 0 min 0 W/m 4,2 C 6,4 C 6,4 km/h (2 Bft)
28.12.2016 19:45 6,4 C 86 % 1041,2 hPa 0,0 l/m 2,6 km/h (1 Bft) W-SW 243 0 min 0 W/m 4,2 C 6,4 C 4,8 km/h (1 Bft)
28.12.2016 19:48 6,3 C 86 % 1041,3 hPa 0,0 l/m 1,9 km/h (1 Bft) W-SW 243 0 min 0 W/m 4,1 C 6,3 C 4,8 km/h (1 Bft)
28.12.2016 19:51 6,3 C 86 % 1041,2 hPa 0,0 l/m 2,4 km/h (1 Bft) W-SW 243 0 min 0 W/m 4,1 C 6,3 C 4,8 km/h (1 Bft)
28.12.2016 19:54 6,3 C 86 % 1041,2 hPa 0,0 l/m 3,2 km/h (1 Bft) SW 235 0 min 0 W/m 4,1 C 6,3 C 4,8 km/h (1 Bft)
28.12.2016 19:57 6,3 C 86 % 1041,2 hPa 0,0 l/m 2,4 km/h (1 Bft) SW 236 0 min 0 W/m 4,1 C 6,3 C 4,8 km/h (1 Bft)
28.12.2016 20:00 6,3 C 86 % 1041,2 hPa 0,0 l/m 3,6 km/h (1 Bft) W-SW 247 0 min 0 W/m 4,1 C 6,3 C 6,4 km/h (2 Bft)
28.12.2016 20:03 6,3 C 86 % 1041,3 hPa 0,0 l/m 2,2 km/h (1 Bft) W-SW 249 0 min 0 W/m 4,1 C 6,3 C 4,8 km/h (1 Bft)
28.12.2016 20:06 6,2 C 86 % 1041,3 hPa 0,0 l/m 3,2 km/h (1 Bft) W-SW 246 0 min 0 W/m 4,0 C 6,2 C 6,4 km/h (2 Bft)
28.12.2016 20:09 6,2 C 86 % 1041,2 hPa 0,0 l/m 3,2 km/h (1 Bft) W-SW 254 0 min 0 W/m 4,0 C 6,2 C 6,4 km/h (2 Bft)
28.12.2016 20:12 6,2 C 86 % 1041,2 hPa 0,0 l/m 2,6 km/h (1 Bft) SW 233 0 min 0 W/m 4,0 C 6,2 C 6,4 km/h (2 Bft)
28.12.2016 20:15 6,2 C 86 % 1041,3 hPa 0,0 l/m 2,9 km/h (1 Bft) W-SW 244 0 min 0 W/m 4,0 C 6,2 C 8,0 km/h (2 Bft)
28.12.2016 20:18 6,2 C 86 % 1041,3 hPa 0,0 l/m 4,3 km/h (1 Bft) SW 224 0 min 0 W/m 4,0 C 6,2 C 6,4 km/h (2 Bft)
28.12.2016 20:21 6,2 C 85 % 1041,2 hPa 0,0 l/m 6,2 km/h (2 Bft) SW 222 0 min 0 W/m 3,9 C 6,2 C 9,7 km/h (2 Bft)
28.12.2016 20:24 6,2 C 86 % 1041,2 hPa 0,0 l/m 4,9 km/h (1 Bft) W-SW 251 0 min 0 W/m 4,0 C 6,2 C 9,7 km/h (2 Bft)
28.12.2016 20:27 6,2 C 86 % 1041,3 hPa 0,0 l/m 3,2 km/h (1 Bft) W 265 0 min 0 W/m 4,0 C 6,2 C 6,4 km/h (2 Bft)
28.12.2016 20:30 6,2 C 86 % 1041,3 hPa 0,0 l/m 4,9 km/h (1 Bft) SW 228 0 min 0 W/m 4,0 C 6,2 C 8,0 km/h (2 Bft)
28.12.2016 20:33 6,2 C 85 % 1041,3 hPa 0,0 l/m 2,9 km/h (1 Bft) W 259 0 min 0 W/m 3,9 C 6,2 C 8,0 km/h (2 Bft)
28.12.2016 20:36 6,2 C 85 % 1041,2 hPa 0,0 l/m 4,4 km/h (1 Bft) SW 228 0 min 0 W/m 3,9 C 6,2 C 6,4 km/h (2 Bft)
28.12.2016 20:39 6,2 C 85 % 1041,3 hPa 0,0 l/m 2,1 km/h (1 Bft) SW 228 0 min 0 W/m 3,9 C 6,2 C 4,8 km/h (1 Bft)
28.12.2016 20:42 6,2 C 85 % 1041,2 hPa 0,0 l/m 3,3 km/h (1 Bft) W-SW 245 0 min 0 W/m 3,9 C 6,2 C 6,4 km/h (2 Bft)
28.12.2016 20:45 6,2 C 85 % 1041,1 hPa 0,0 l/m 3,0 km/h (1 Bft) W-SW 245 0 min 0 W/m 3,9 C 6,2 C 6,4 km/h (2 Bft)
28.12.2016 20:48 6,2 C 85 % 1041,1 hPa 0,0 l/m 3,5 km/h (1 Bft) W-SW 241 0 min 0 W/m 3,9 C 6,2 C 6,4 km/h (2 Bft)
28.12.2016 20:51 6,1 C 85 % 1041,1 hPa 0,0 l/m 3,2 km/h (1 Bft) W-SW 237 0 min 0 W/m 3,8 C 6,1 C 6,4 km/h (2 Bft)
28.12.2016 20:54 6,1 C 85 % 1041,1 hPa 0,0 l/m 3,2 km/h (1 Bft) SW 229 0 min 0 W/m 3,8 C 6,1 C 6,4 km/h (2 Bft)
28.12.2016 20:57 6,1 C 85 % 1041,2 hPa 0,0 l/m 2,5 km/h (1 Bft) SW 229 0 min 0 W/m 3,8 C 6,1 C 6,4 km/h (2 Bft)
28.12.2016 21:00 6,1 C 85 % 1041,1 hPa 0,0 l/m 3,3 km/h (1 Bft) SW 234 0 min 0 W/m 3,8 C 6,1 C 6,4 km/h (2 Bft)
28.12.2016 21:03 6,1 C 85 % 1041,1 hPa 0,0 l/m 2,9 km/h (1 Bft) SW 229 0 min 0 W/m 3,8 C 6,1 C 6,4 km/h (2 Bft)
28.12.2016 21:06 6,1 C 85 % 1041,1 hPa 0,0 l/m 3,6 km/h (1 Bft) SW 230 0 min 0 W/m 3,8 C 6,1 C 8,0 km/h (2 Bft)
28.12.2016 21:09 6,1 C 85 % 1041,1 hPa 0,0 l/m 2,2 km/h (1 Bft) SW 228 0 min 0 W/m 3,8 C 6,1 C 6,4 km/h (2 Bft)
28.12.2016 21:12 6,1 C 85 % 1041,1 hPa 0,0 l/m 3,1 km/h (1 Bft) SW 227 0 min 0 W/m 3,8 C 6,1 C 4,8 km/h (1 Bft)
28.12.2016 21:15 6,1 C 85 % 1041,1 hPa 0,0 l/m 2,7 km/h (1 Bft) SW 227 0 min 0 W/m 3,8 C 6,1 C 4,8 km/h (1 Bft)
28.12.2016 21:18 6,1 C 85 % 1041,1 hPa 0,0 l/m 3,7 km/h (1 Bft) SW 227 0 min 0 W/m 3,8 C 6,1 C 6,4 km/h (2 Bft)
28.12.2016 21:21 6,1 C 85 % 1041,2 hPa 0,0 l/m 3,6 km/h (1 Bft) SW 227 0 min 0 W/m 3,8 C 6,1 C 6,4 km/h (2 Bft)
28.12.2016 21:24 6,1 C 85 % 1041,2 hPa 0,0 l/m 4,6 km/h (1 Bft) S-SW 196 0 min 0 W/m 3,8 C 6,1 C 9,7 km/h (2 Bft)
28.12.2016 21:27 6,1 C 85 % 1041,1 hPa 0,0 l/m 4,3 km/h (1 Bft) SW 232 0 min 0 W/m 3,8 C 6,1 C 8,0 km/h (2 Bft)
28.12.2016 21:30 6,0 C 85 % 1041,1 hPa 0,0 l/m 4,0 km/h (1 Bft) SW 223 0 min 0 W/m 3,7 C 6,0 C 6,4 km/h (2 Bft)
28.12.2016 21:33 6,0 C 85 % 1041,0 hPa 0,0 l/m 4,3 km/h (1 Bft) SW 223 0 min 0 W/m 3,7 C 6,0 C 6,4 km/h (2 Bft)
28.12.2016 21:36 6,0 C 85 % 1040,9 hPa 0,0 l/m 5,5 km/h (2 Bft) SW 234 0 min 0 W/m 3,7 C 6,0 C 8,0 km/h (2 Bft)
28.12.2016 21:39 6,0 C 85 % 1040,9 hPa 0,0 l/m 6,3 km/h (2 Bft) SW 232 0 min 0 W/m 3,7 C 6,0 C 9,7 km/h (2 Bft)
28.12.2016 21:42 6,0 C 86 % 1040,9 hPa 0,0 l/m 6,5 km/h (2 Bft) S-SW 205 0 min 0 W/m 3,8 C 5,9 C 11,3 km/h (2 Bft)
28.12.2016 21:45 5,9 C 86 % 1040,9 hPa 0,0 l/m 6,7 km/h (2 Bft) SW 236 0 min 0 W/m 3,7 C 5,7 C 9,7 km/h (2 Bft)
28.12.2016 21:48 5,9 C 86 % 1040,8 hPa 0,0 l/m 9,4 km/h (2 Bft) SW 219 0 min 0 W/m 3,7 C 3,5 C 12,9 km/h (3 Bft)
28.12.2016 21:51 5,9 C 86 % 1040,8 hPa 0,0 l/m 8,0 km/h (2 Bft) SW 232 0 min 0 W/m 3,7 C 4,5 C 12,9 km/h (3 Bft)
28.12.2016 21:54 5,9 C 86 % 1040,8 hPa 0,0 l/m 6,5 km/h (2 Bft) W-SW 237 0 min 0 W/m 3,7 C 5,8 C 11,3 km/h (2 Bft)
28.12.2016 21:57 5,9 C 86 % 1040,8 hPa 0,0 l/m 7,8 km/h (2 Bft) SW 231 0 min 0 W/m 3,7 C 4,7 C 12,9 km/h (3 Bft)
28.12.2016 22:00 5,9 C 86 % 1040,9 hPa 0,0 l/m 7,4 km/h (2 Bft) SW 219 0 min 0 W/m 3,7 C 5,0 C 11,3 km/h (2 Bft)
28.12.2016 22:03 5,9 C 86 % 1040,8 hPa 0,0 l/m 8,1 km/h (2 Bft) SW 218 0 min 0 W/m 3,7 C 4,5 C 11,3 km/h (2 Bft)
28.12.2016 22:06 5,9 C 86 % 1040,9 hPa 0,0 l/m 9,6 km/h (2 Bft) W-SW 242 0 min 0 W/m 3,7 C 3,3 C 12,9 km/h (3 Bft)
28.12.2016 22:09 5,8 C 86 % 1040,9 hPa 0,0 l/m 8,0 km/h (2 Bft) SW 231 0 min 0 W/m 3,6 C 4,4 C 12,9 km/h (3 Bft)
28.12.2016 22:12 5,8 C 86 % 1041,0 hPa 0,0 l/m 6,6 km/h (2 Bft) S-SW 198 0 min 0 W/m 3,6 C 5,7 C 9,7 km/h (2 Bft)
28.12.2016 22:15 5,8 C 86 % 1041,1 hPa 0,0 l/m 6,0 km/h (2 Bft) W-SW 238 0 min 0 W/m 3,6 C 5,8 C 8,0 km/h (2 Bft)
28.12.2016 22:18 5,8 C 86 % 1041,1 hPa 0,0 l/m 5,2 km/h (1 Bft) SW 226 0 min 0 W/m 3,6 C 5,8 C 6,4 km/h (2 Bft)
28.12.2016 22:21 5,7 C 86 % 1041,2 hPa 0,0 l/m 4,5 km/h (1 Bft) SW 227 0 min 0 W/m 3,5 C 5,7 C 8,0 km/h (2 Bft)
28.12.2016 22:24 5,7 C 87 % 1041,2 hPa 0,0 l/m 4,2 km/h (1 Bft) SW 230 0 min 0 W/m 3,7 C 5,7 C 6,4 km/h (2 Bft)
28.12.2016 22:27 5,7 C 87 % 1041,2 hPa 0,0 l/m 4,0 km/h (1 Bft) SW 230 0 min 0 W/m 3,7 C 5,7 C 6,4 km/h (2 Bft)
28.12.2016 22:30 5,7 C 87 % 1041,3 hPa 0,0 l/m 4,8 km/h (1 Bft) SW 227 0 min 0 W/m 3,7 C 5,7 C 8,0 km/h (2 Bft)
28.12.2016 22:33 5,7 C 87 % 1041,3 hPa 0,0 l/m 4,5 km/h (1 Bft) SW 227 0 min 0 W/m 3,7 C 5,7 C 6,4 km/h (2 Bft)
28.12.2016 22:36 5,7 C 87 % 1041,3 hPa 0,0 l/m 4,1 km/h (1 Bft) SW 228 0 min 0 W/m 3,7 C 5,7 C 6,4 km/h (2 Bft)
28.12.2016 22:39 5,7 C 87 % 1041,3 hPa 0,0 l/m 4,8 km/h (1 Bft) SW 227 0 min 0 W/m 3,7 C 5,7 C 6,4 km/h (2 Bft)
28.12.2016 22:42 5,7 C 87 % 1041,3 hPa 0,0 l/m 4,1 km/h (1 Bft) SW 225 0 min 0 W/m 3,7 C 5,7 C 6,4 km/h (2 Bft)
28.12.2016 22:45 5,7 C 87 % 1041,3 hPa 0,0 l/m 4,8 km/h (1 Bft) S-SW 211 0 min 0 W/m 3,7 C 5,7 C 8,0 km/h (2 Bft)
28.12.2016 22:48 5,7 C 87 % 1041,3 hPa 0,0 l/m 4,7 km/h (1 Bft) SW 217 0 min 0 W/m 3,7 C 5,7 C 6,4 km/h (2 Bft)
28.12.2016 22:51 5,7 C 87 % 1041,2 hPa 0,0 l/m 4,7 km/h (1 Bft) SW 224 0 min 0 W/m 3,7 C 5,7 C 8,0 km/h (2 Bft)
28.12.2016 22:54 5,7 C 87 % 1041,3 hPa 0,0 l/m 4,5 km/h (1 Bft) SW 225 0 min 0 W/m 3,7 C 5,7 C 8,0 km/h (2 Bft)
28.12.2016 22:57 5,7 C 87 % 1041,4 hPa 0,0 l/m 3,5 km/h (1 Bft) SW 225 0 min 0 W/m 3,7 C 5,7 C 6,4 km/h (2 Bft)
28.12.2016 23:00 5,7 C 87 % 1041,4 hPa 0,0 l/m 4,4 km/h (1 Bft) SW 222 0 min 0 W/m 3,7 C 5,7 C 6,4 km/h (2 Bft)
28.12.2016 23:03 5,7 C 87 % 1041,3 hPa 0,0 l/m 4,5 km/h (1 Bft) W-SW 250 0 min 0 W/m 3,7 C 5,7 C 8,0 km/h (2 Bft)
28.12.2016 23:06 5,7 C 87 % 1041,3 hPa 0,0 l/m 5,0 km/h (1 Bft) SW 217 0 min 0 W/m 3,7 C 5,7 C 8,0 km/h (2 Bft)
28.12.2016 23:09 5,7 C 87 % 1041,3 hPa 0,0 l/m 6,5 km/h (2 Bft) SW 219 0 min 0 W/m 3,7 C 5,6 C 11,3 km/h (2 Bft)
28.12.2016 23:12 5,7 C 87 % 1041,3 hPa 0,0 l/m 7,2 km/h (2 Bft) SW 236 0 min 0 W/m 3,7 C 5,0 C 11,3 km/h (2 Bft)
28.12.2016 23:15 5,8 C 87 % 1041,2 hPa 0,0 l/m 6,4 km/h (2 Bft) W-SW 244 0 min 0 W/m 3,8 C 5,8 C 9,7 km/h (2 Bft)
28.12.2016 23:18 5,8 C 87 % 1041,3 hPa 0,0 l/m 7,5 km/h (2 Bft) W-SW 252 0 min 0 W/m 3,8 C 4,9 C 12,9 km/h (3 Bft)
28.12.2016 23:21 5,8 C 87 % 1041,3 hPa 0,0 l/m 7,0 km/h (2 Bft) W-SW 238 0 min 0 W/m 3,8 C 5,3 C 11,3 km/h (2 Bft)
28.12.2016 23:24 5,8 C 87 % 1041,3 hPa 0,0 l/m 7,3 km/h (2 Bft) W-SW 237 0 min 0 W/m 3,8 C 5,0 C 14,5 km/h (3 Bft)
28.12.2016 23:27 5,8 C 86 % 1041,2 hPa 0,0 l/m 7,5 km/h (2 Bft) SW 236 0 min 0 W/m 3,6 C 4,9 C 12,9 km/h (3 Bft)
28.12.2016 23:30 5,8 C 86 % 1041,2 hPa 0,0 l/m 7,4 km/h (2 Bft) W-SW 241 0 min 0 W/m 3,6 C 4,9 C 11,3 km/h (2 Bft)
28.12.2016 23:33 5,8 C 86 % 1041,2 hPa 0,0 l/m 6,5 km/h (2 Bft) SW 229 0 min 0 W/m 3,6 C 5,7 C 11,3 km/h (2 Bft)
28.12.2016 23:36 5,9 C 86 % 1041,3 hPa 0,0 l/m 9,0 km/h (2 Bft) W-SW 242 0 min 0 W/m 3,7 C 3,8 C 16,1 km/h (3 Bft)
28.12.2016 23:39 5,9 C 86 % 1041,3 hPa 0,0 l/m 6,8 km/h (2 Bft) W-SW 238 0 min 0 W/m 3,7 C 5,6 C 9,7 km/h (2 Bft)
28.12.2016 23:42 5,9 C 86 % 1041,2 hPa 0,0 l/m 9,0 km/h (2 Bft) SW 236 0 min 0 W/m 3,7 C 3,8 C 16,1 km/h (3 Bft)
28.12.2016 23:45 5,9 C 86 % 1041,2 hPa 0,0 l/m 9,3 km/h (2 Bft) SW 235 0 min 0 W/m 3,7 C 3,6 C 16,1 km/h (3 Bft)
28.12.2016 23:48 5,9 C 86 % 1041,2 hPa 0,0 l/m 8,1 km/h (2 Bft) SW 232 0 min 0 W/m 3,7 C 4,5 C 12,9 km/h (3 Bft)
28.12.2016 23:51 5,9 C 86 % 1041,2 hPa 0,0 l/m 10,1 km/h (2 Bft) W-SW 239 0 min 0 W/m 3,7 C 3,0 C 16,1 km/h (3 Bft)
28.12.2016 23:54 5,9 C 85 % 1041,2 hPa 0,0 l/m 7,8 km/h (2 Bft) SW 225 0 min 0 W/m 3,6 C 4,7 C 14,5 km/h (3 Bft)
28.12.2016 23:57 5,9 C 85 % 1041,1 hPa 0,0 l/m 6,2 km/h (2 Bft) SW 224 0 min 0 W/m 3,6 C 5,9 C 12,9 km/h (3 Bft)
_ Min-Zeit 22:54 15:48 01:39 - 17:18 - - - - 22:21 01:45 17:18
Minimum _ 5,6 C 81 % 1038,5 hPa - 1,6 km/h (1 Bft) - - - - 3,5 C 0,9 C 3,2 km/h (1 Bft)
_ Max-Zeit 00:00 03:30 11:18 06:12 01:45 - - 00:00 11:03 00:00 11:54 01:45
Maximum _ 7,6 C 95 % 1041,5 hPa 0,2 l/m 16,5 km/h
W (3 Bft)
- - 0 min 77 W/m 6,6 C 7,3 C 27,4 km/h
W (5 Bft)
Durchschnitt _ 6,6 C 90 % 1040,4 hPa #0,4 l/m 7,1 km/h (2 Bft) W - #0 min. 33 W/m 5,0 C 5,4 C 13,8 km/h (3 Bft)
2016 Cux-Wetter.de -Die Nutzung der Wetterdaten nur mit ausdrcklicher Genehmigung